
Distance (Route):
Temperature : 0°C
Humidity : 0%
Pressure : 0hPa| Receiver | Frames | First received | Last received |
|---|---|---|---|
| ARGUS2 | 427 | 2026-08-30 23:13:57 | 2026-08-31 01:59:31 |
| Receiver | Date | Latitude | Longitude | Direction | Speed | Altitude | Climb | Temperature | Humidity | Pressure | Voltage | Killtimer | Uptime | BKT | XDATA |
|---|---|---|---|---|---|---|---|---|---|---|---|---|---|---|---|
| ARGUS2 | 2026-08-31 01:59:31 | 27.68798 | -83.03669 | 285° | 24km/h | 1348m | -3.4m/s | 0°C | 0% | 0hPa | 0V | 00:00:00 | 00:00:00 | 00:00:00 | |
| ARGUS2 | 2026-08-31 01:54:51 | 27.68917 | -83.01919 | 267° | 22km/h | 2300m | -3.4m/s | 13.7°C | 0% | 0hPa | 0V | 00:00:00 | 00:00:00 | 00:00:00 | |
| ARGUS2 | 2026-08-31 01:54:12 | 27.68952 | -83.01677 | 257° | 20km/h | 2444m | -3.7m/s | 13.1°C | 0% | 0hPa | 0V | 00:00:00 | 00:00:00 | 00:00:00 | |
| ARGUS2 | 2026-08-31 01:53:50 | 27.68978 | -83.01558 | 260° | 20km/h | 2523m | -3.6m/s | 12.9°C | 0% | 0hPa | 0V | 00:00:00 | 00:00:00 | 00:00:00 | |
| ARGUS2 | 2026-08-31 01:53:30 | 27.68997 | -83.01448 | 259° | 20km/h | 2601m | -3.8m/s | 12.5°C | 0% | 0hPa | 0V | 00:00:00 | 00:00:00 | 00:00:00 | |
| ARGUS2 | 2026-08-31 01:53:10 | 27.69014 | -83.01324 | 264° | 22km/h | 2683m | -3.9m/s | 12.1°C | 0% | 0hPa | 0V | 00:00:00 | 00:00:00 | 00:00:00 | |
| ARGUS2 | 2026-08-31 01:52:49 | 27.69030 | -83.01213 | 260° | 20km/h | 2763m | -3.9m/s | 11.6°C | 0% | 0hPa | 0V | 00:00:00 | 00:00:00 | 00:00:00 | |
| ARGUS2 | 2026-08-31 01:52:29 | 27.69048 | -83.01089 | 261° | 20km/h | 2845m | -3.9m/s | 11.0°C | 0% | 0hPa | 0V | 00:00:00 | 00:00:00 | 00:00:00 | |
| ARGUS2 | 2026-08-31 01:52:08 | 27.69064 | -83.00976 | 260° | 20km/h | 2924m | -4.1m/s | 10.4°C | 0% | 0hPa | 0V | 00:00:00 | 00:00:00 | 00:00:00 | |
| ARGUS2 | 2026-08-31 01:51:48 | 27.69089 | -83.00884 | 245° | 13km/h | 3011m | -4.1m/s | 10.1°C | 0% | 0hPa | 0V | 00:00:00 | 00:00:00 | 00:00:00 | |
| ARGUS2 | 2026-08-31 01:51:27 | 27.69117 | -83.00812 | 251° | 16km/h | 3095m | -4.0m/s | 9.7°C | 0% | 0hPa | 0V | 00:00:00 | 00:00:00 | 00:00:00 | |
| ARGUS2 | 2026-08-31 01:51:06 | 27.69137 | -83.00729 | 258° | 13km/h | 3182m | -4.2m/s | 9.6°C | 0% | 0hPa | 0V | 00:00:00 | 00:00:00 | 00:00:00 | |
| ARGUS2 | 2026-08-31 01:50:46 | 27.69162 | -83.00653 | 250° | 15km/h | 3265m | -4.2m/s | 9.4°C | 0% | 0hPa | 0V | 00:00:00 | 00:00:00 | 00:00:00 | |
| ARGUS2 | 2026-08-31 01:50:26 | 27.69188 | -83.00564 | 258° | 13km/h | 3352m | -4.0m/s | 8.5°C | 0% | 0hPa | 0V | 00:00:00 | 00:00:00 | 00:00:00 | |
| ARGUS2 | 2026-08-31 01:50:05 | 27.69202 | -83.00491 | 258° | 11km/h | 3437m | -4.2m/s | 8.0°C | 0% | 0hPa | 0V | 00:00:00 | 00:00:00 | 00:00:00 | |
| ARGUS2 | 2026-08-31 01:49:45 | 27.69215 | -83.00448 | 226° | 5km/h | 3525m | -4.2m/s | 7.5°C | 0% | 0hPa | 0V | 00:00:00 | 00:00:00 | 00:00:00 | |
| ARGUS2 | 2026-08-31 01:49:23 | 27.69242 | -83.00419 | 218° | 9km/h | 3614m | -4.2m/s | 7.2°C | 0% | 0hPa | 0V | 00:00:00 | 00:00:00 | 00:00:00 | |
| ARGUS2 | 2026-08-31 01:49:03 | 27.69293 | -83.00390 | 206° | 13km/h | 3697m | -4.2m/s | 6.8°C | 0% | 0hPa | 0V | 00:00:00 | 00:00:00 | 00:00:00 | |
| ARGUS2 | 2026-08-31 01:48:42 | 27.69343 | -83.00362 | 213° | 11km/h | 3786m | -4.4m/s | 6.7°C | 0% | 0hPa | 0V | 00:00:00 | 00:00:00 | 00:00:00 | |
| ARGUS2 | 2026-08-31 01:48:22 | 27.69390 | -83.00334 | 197° | 13km/h | 3873m | -4.3m/s | 6.2°C | 0% | 0hPa | 0V | 00:00:00 | 00:00:00 | 00:00:00 | |
| ARGUS2 | 2026-08-31 01:48:01 | 27.69448 | -83.00316 | 198° | 13km/h | 3968m | -4.4m/s | 5.4°C | 0% | 0hPa | 0V | 00:00:00 | 00:00:00 | 00:00:00 | |
| ARGUS2 | 2026-08-31 01:47:41 | 27.69505 | -83.00292 | 189° | 13km/h | 4058m | -4.3m/s | 4.7°C | 0% | 0hPa | 0V | 00:00:00 | 00:00:00 | 00:00:00 | |
| ARGUS2 | 2026-08-31 01:47:21 | 27.69567 | -83.00269 | 194° | 11km/h | 4150m | -4.4m/s | 4.1°C | 0% | 0hPa | 0V | 00:00:00 | 00:00:00 | 00:00:00 | |
| ARGUS2 | 2026-08-31 01:46:59 | 27.69617 | -83.00244 | 218° | 7km/h | 4240m | -3.9m/s | 3.2°C | 0% | 0hPa | 0V | 00:00:00 | 00:00:00 | 00:00:00 | |
| ARGUS2 | 2026-08-31 01:46:38 | 27.69649 | -83.00220 | 221° | 7km/h | 4329m | -4.2m/s | 2.5°C | 0% | 0hPa | 0V | 00:00:00 | 00:00:00 | 00:00:00 | |
| ARGUS2 | 2026-08-31 01:46:18 | 27.69683 | -83.00202 | 196° | 9km/h | 4421m | -4.3m/s | 1.8°C | 0% | 0hPa | 0V | 00:00:00 | 00:00:00 | 00:00:00 | |
| ARGUS2 | 2026-08-31 01:45:57 | 27.69726 | -83.00196 | 184° | 9km/h | 4508m | -4.5m/s | 1.1°C | 0% | 0hPa | 0V | 00:00:00 | 00:00:00 | 00:00:00 | |
| ARGUS2 | 2026-08-31 01:45:36 | 27.69762 | -83.00182 | 203° | 5km/h | 4603m | -4.4m/s | 0.8°C | 0% | 0hPa | 0V | 00:00:00 | 00:00:00 | 00:00:00 | |
| ARGUS2 | 2026-08-31 01:45:16 | 27.69788 | -83.00175 | 186° | 5km/h | 4700m | -4.8m/s | 0.4°C | 0% | 0hPa | 0V | 00:00:00 | 00:00:00 | 00:00:00 | |
| ARGUS2 | 2026-08-31 01:44:55 | 27.69823 | -83.00184 | 166° | 7km/h | 4793m | -4.7m/s | -0.2°C | 0% | 0hPa | 0V | 00:00:00 | 00:00:00 | 00:00:00 | |
| ARGUS2 | 2026-08-31 01:44:35 | 27.69853 | -83.00191 | 181° | 4km/h | 4891m | -4.6m/s | -0.7°C | 0% | 0hPa | 0V | 00:00:00 | 00:00:00 | 00:00:00 | |
| ARGUS2 | 2026-08-31 01:44:14 | 27.69861 | -83.00205 | 93° | 4km/h | 4983m | -4.6m/s | -1.1°C | 0% | 0hPa | 0V | 00:00:00 | 00:00:00 | 00:00:00 | |
| ARGUS2 | 2026-08-31 01:43:54 | 27.69845 | -83.00244 | 68° | 9km/h | 5082m | -4.5m/s | -2.0°C | 0% | 0hPa | 0V | 00:00:00 | 00:00:00 | 00:00:00 | |
| ARGUS2 | 2026-08-31 01:43:33 | 27.69825 | -83.00275 | 45° | 7km/h | 5176m | -4.7m/s | -2.4°C | 0% | 0hPa | 0V | 00:00:00 | 00:00:00 | 00:00:00 | |
| ARGUS2 | 2026-08-31 01:43:13 | 27.69781 | -83.00312 | 32° | 11km/h | 5278m | -4.7m/s | -2.7°C | 0% | 0hPa | 0V | 00:00:00 | 00:00:00 | 00:00:00 | |
| ARGUS2 | 2026-08-31 01:42:52 | 27.69733 | -83.00340 | 36° | 9km/h | 5374m | -4.8m/s | -3.1°C | 0% | 0hPa | 0V | 00:00:00 | 00:00:00 | 00:00:00 | |
| ARGUS2 | 2026-08-31 01:42:31 | 27.69699 | -83.00362 | 25° | 5km/h | 5478m | -4.9m/s | -3.6°C | 0% | 0hPa | 0V | 00:00:00 | 00:00:00 | 00:00:00 | |
| ARGUS2 | 2026-08-31 01:42:11 | 27.69665 | -83.00380 | 37° | 11km/h | 5583m | -4.9m/s | -3.9°C | 0% | 0hPa | 0V | 00:00:00 | 00:00:00 | 00:00:00 | |
| ARGUS2 | 2026-08-31 01:41:50 | 27.69618 | -83.00413 | 48° | 9km/h | 5688m | -5.1m/s | -4.7°C | 0% | 0hPa | 0V | 00:00:00 | 00:00:00 | 00:00:00 | |
| ARGUS2 | 2026-08-31 01:41:30 | 27.69589 | -83.00448 | 55° | 7km/h | 5796m | -5.2m/s | -5.5°C | 0% | 0hPa | 0V | 00:00:00 | 00:00:00 | 00:00:00 | |
| ARGUS2 | 2026-08-31 01:41:09 | 27.69571 | -83.00479 | 32° | 5km/h | 5897m | -4.9m/s | -6.0°C | 0% | 0hPa | 0V | 00:00:00 | 00:00:00 | 00:00:00 | |
| ARGUS2 | 2026-08-31 01:40:48 | 27.69557 | -83.00506 | 89° | 7km/h | 6004m | -5.1m/s | -6.3°C | 0% | 0hPa | 0V | 00:00:00 | 00:00:00 | 00:00:00 | |
| ARGUS2 | 2026-08-31 01:40:28 | 27.69550 | -83.00547 | 89° | 9km/h | 6107m | -5.2m/s | -7.0°C | 0% | 0hPa | 0V | 00:00:00 | 00:00:00 | 00:00:00 | |
| ARGUS2 | 2026-08-31 01:40:08 | 27.69547 | -83.00612 | 80° | 7km/h | 6219m | -5.3m/s | -7.6°C | 0% | 0hPa | 0V | 00:00:00 | 00:00:00 | 00:00:00 | |
| ARGUS2 | 2026-08-31 01:39:47 | 27.69532 | -83.00640 | 25° | 2km/h | 6325m | -5.1m/s | -8.3°C | 0% | 0hPa | 0V | 00:00:00 | 00:00:00 | 00:00:00 | |
| ARGUS2 | 2026-08-31 01:39:27 | 27.69522 | -83.00649 | 0° | 0km/h | 6436m | -5.2m/s | -8.9°C | 0% | 0hPa | 0V | 00:00:00 | 00:00:00 | 00:00:00 | |
| ARGUS2 | 2026-08-31 01:39:06 | 27.69509 | -83.00658 | 3° | 5km/h | 6540m | -5.2m/s | -9.6°C | 0% | 0hPa | 0V | 00:00:00 | 00:00:00 | 00:00:00 | |
| ARGUS2 | 2026-08-31 01:38:46 | 27.69466 | -83.00674 | 15° | 7km/h | 6650m | -5.4m/s | -10.1°C | 0% | 0hPa | 0V | 00:00:00 | 00:00:00 | 00:00:00 | |
| ARGUS2 | 2026-08-31 01:38:25 | 27.69410 | -83.00685 | 19° | 13km/h | 6755m | -5.1m/s | -10.7°C | 0% | 0hPa | 0V | 00:00:00 | 00:00:00 | 00:00:00 | |
| ARGUS2 | 2026-08-31 01:38:05 | 27.69351 | -83.00707 | 24° | 11km/h | 6864m | -5.3m/s | -11.3°C | 0% | 0hPa | 0V | 00:00:00 | 00:00:00 | 00:00:00 | |
| ARGUS2 | 2026-08-31 01:37:43 | 27.69296 | -83.00729 | 21° | 9km/h | 6975m | -5.3m/s | -11.9°C | 0% | 0hPa | 0V | 00:00:00 | 00:00:00 | 00:00:00 | |
| ARGUS2 | 2026-08-31 01:37:23 | 27.69244 | -83.00754 | 34° | 11km/h | 7081m | -5.2m/s | -12.6°C | 0% | 0hPa | 0V | 00:00:00 | 00:00:00 | 00:00:00 | |
| ARGUS2 | 2026-08-31 01:37:02 | 27.69197 | -83.00784 | 16° | 11km/h | 7195m | -5.2m/s | -13.3°C | 0% | 0hPa | 0V | 00:00:00 | 00:00:00 | 00:00:00 | |
| ARGUS2 | 2026-08-31 01:36:42 | 27.69139 | -83.00796 | 9° | 13km/h | 7302m | -5.4m/s | -14.1°C | 0% | 0hPa | 0V | 00:00:00 | 00:00:00 | 00:00:00 | |
| ARGUS2 | 2026-08-31 01:36:21 | 27.69065 | -83.00804 | 6° | 13km/h | 7415m | -5.2m/s | -14.8°C | 0% | 0hPa | 0V | 00:00:00 | 00:00:00 | 00:00:00 | |
| ARGUS2 | 2026-08-31 01:36:01 | 27.68997 | -83.00804 | 360° | 15km/h | 7522m | -5.3m/s | -15.5°C | 0% | 0hPa | 0V | 00:00:00 | 00:00:00 | 00:00:00 | |
| ARGUS2 | 2026-08-31 01:35:41 | 27.68940 | -83.00808 | 358° | 7km/h | 7635m | -5.3m/s | -16.2°C | 0% | 0hPa | 0V | 00:00:00 | 00:00:00 | 00:00:00 | |
| ARGUS2 | 2026-08-31 01:35:20 | 27.68899 | -83.00799 | 347° | 9km/h | 7743m | -5.4m/s | -16.8°C | 0% | 0hPa | 0V | 00:00:00 | 00:00:00 | 00:00:00 | |
| ARGUS2 | 2026-08-31 01:35:00 | 27.68869 | -83.00778 | 305° | 7km/h | 7858m | -5.6m/s | -17.5°C | 0% | 0hPa | 0V | 00:00:00 | 00:00:00 | 00:00:00 | |
| ARGUS2 | 2026-08-31 01:34:39 | 27.68860 | -83.00732 | 278° | 9km/h | 7971m | -5.5m/s | -18.0°C | 0% | 0hPa | 0V | 00:00:00 | 00:00:00 | 00:00:00 | |
| ARGUS2 | 2026-08-31 01:34:18 | 27.68851 | -83.00684 | 277° | 5km/h | 8093m | -5.8m/s | -19.0°C | 0% | 0hPa | 0V | 00:00:00 | 00:00:00 | 00:00:00 | |
| ARGUS2 | 2026-08-31 01:33:38 | 27.68829 | -83.00638 | 308° | 4km/h | 8330m | -5.8m/s | -20.7°C | 0% | 0hPa | 0V | 00:00:00 | 00:00:00 | 00:00:00 | |
| ARGUS2 | 2026-08-31 01:33:17 | 27.68817 | -83.00623 | 319° | 5km/h | 8447m | -5.9m/s | -21.5°C | 0% | 0hPa | 0V | 00:00:00 | 00:00:00 | 00:00:00 | |
| ARGUS2 | 2026-08-31 01:32:57 | 27.68792 | -83.00608 | 347° | 9km/h | 8573m | -5.9m/s | -22.4°C | 0% | 0hPa | 0V | 00:00:00 | 00:00:00 | 00:00:00 | |
| ARGUS2 | 2026-08-31 01:32:35 | 27.68759 | -83.00598 | 350° | 5km/h | 8696m | -5.8m/s | -23.1°C | 0% | 0hPa | 0V | 00:00:00 | 00:00:00 | 00:00:00 | |
| ARGUS2 | 2026-08-31 01:32:15 | 27.68723 | -83.00604 | 17° | 11km/h | 8812m | -5.8m/s | -23.8°C | 0% | 0hPa | 0V | 00:00:00 | 00:00:00 | 00:00:00 | |
| ARGUS2 | 2026-08-31 01:31:55 | 27.68669 | -83.00610 | 6° | 11km/h | 8939m | -6.2m/s | -24.6°C | 0% | 0hPa | 0V | 00:00:00 | 00:00:00 | 00:00:00 | |
| ARGUS2 | 2026-08-31 01:31:34 | 27.68614 | -83.00617 | 8° | 11km/h | 9062m | -5.9m/s | -25.6°C | 0% | 0hPa | 0V | 00:00:00 | 00:00:00 | 00:00:00 | |
| ARGUS2 | 2026-08-31 01:31:13 | 27.68565 | -83.00621 | 1° | 9km/h | 9188m | -6.1m/s | -26.6°C | 0% | 0hPa | 0V | 00:00:00 | 00:00:00 | 00:00:00 | |
| ARGUS2 | 2026-08-31 01:30:53 | 27.68529 | -83.00621 | 358° | 5km/h | 9310m | -6.1m/s | -27.4°C | 0% | 0hPa | 0V | 00:00:00 | 00:00:00 | 00:00:00 | |
| ARGUS2 | 2026-08-31 01:30:32 | 27.68495 | -83.00616 | 345° | 5km/h | 9439m | -6.3m/s | -28.1°C | 0% | 0hPa | 0V | 00:00:00 | 00:00:00 | 00:00:00 | |
| ARGUS2 | 2026-08-31 01:30:12 | 27.68461 | -83.00606 | 342° | 7km/h | 9567m | -6.2m/s | -29.1°C | 0% | 0hPa | 0V | 00:00:00 | 00:00:00 | 00:00:00 | |
| ARGUS2 | 2026-08-31 01:29:51 | 27.68431 | -83.00595 | 343° | 7km/h | 9701m | -6.5m/s | -30.2°C | 0% | 0hPa | 0V | 00:00:00 | 00:00:00 | 00:00:00 | |
| ARGUS2 | 2026-08-31 01:29:32 | 27.68408 | -83.00592 | 361° | 4km/h | 9829m | -6.7m/s | -31.1°C | 0% | 0hPa | 0V | 00:00:00 | 00:00:00 | 00:00:00 | |
| ARGUS2 | 2026-08-31 01:29:11 | 27.68382 | -83.00586 | 325° | 7km/h | 9967m | -6.6m/s | -32.1°C | 0% | 0hPa | 0V | 00:00:00 | 00:00:00 | 00:00:00 | |
| ARGUS2 | 2026-08-31 01:28:50 | 27.68349 | -83.00560 | 320° | 9km/h | 10102m | -6.7m/s | -33.1°C | 0% | 0hPa | 0V | 00:00:00 | 00:00:00 | 00:00:00 | |
| ARGUS2 | 2026-08-31 01:28:30 | 27.68319 | -83.00524 | 310° | 5km/h | 10243m | -6.8m/s | -34.3°C | 0% | 0hPa | 0V | 00:00:00 | 00:00:00 | 00:00:00 | |
| ARGUS2 | 2026-08-31 01:28:09 | 27.68293 | -83.00498 | 332° | 7km/h | 10383m | -7.0m/s | -35.5°C | 0% | 0hPa | 0V | 00:00:00 | 00:00:00 | 00:00:00 | |
| ARGUS2 | 2026-08-31 01:27:49 | 27.68255 | -83.00486 | 342° | 11km/h | 10531m | -7.1m/s | -36.5°C | 0% | 0hPa | 0V | 00:00:00 | 00:00:00 | 00:00:00 | |
| ARGUS2 | 2026-08-31 01:27:27 | 27.68203 | -83.00475 | 353° | 13km/h | 10678m | -6.9m/s | -37.4°C | 0% | 0hPa | 0V | 00:00:00 | 00:00:00 | 00:00:00 | |
| ARGUS2 | 2026-08-31 01:27:07 | 27.68145 | -83.00475 | 358° | 11km/h | 10820m | -7.2m/s | -38.6°C | 0% | 0hPa | 0V | 00:00:00 | 00:00:00 | 00:00:00 | |
| ARGUS2 | 2026-08-31 01:26:46 | 27.68086 | -83.00464 | 347° | 13km/h | 10970m | -7.2m/s | -39.8°C | 0% | 0hPa | 0V | 00:00:00 | 00:00:00 | 00:00:00 | |
| ARGUS2 | 2026-08-31 01:26:26 | 27.68027 | -83.00444 | 343° | 9km/h | 11113m | -7.0m/s | -41.0°C | 0% | 0hPa | 0V | 00:00:00 | 00:00:00 | 00:00:00 | |
| ARGUS2 | 2026-08-31 01:26:05 | 27.67972 | -83.00414 | 327° | 11km/h | 11266m | -7.2m/s | -42.3°C | 0% | 0hPa | 0V | 00:00:00 | 00:00:00 | 00:00:00 | |
| ARGUS2 | 2026-08-31 01:25:44 | 27.67919 | -83.00376 | 338° | 11km/h | 11419m | -7.3m/s | -43.6°C | 0% | 0hPa | 0V | 00:00:00 | 00:00:00 | 00:00:00 | |
| ARGUS2 | 2026-08-31 01:25:23 | 27.67866 | -83.00358 | 341° | 11km/h | 11576m | -7.5m/s | -44.9°C | 0% | 0hPa | 0V | 00:00:00 | 00:00:00 | 00:00:00 | |
| ARGUS2 | 2026-08-31 01:25:02 | 27.67815 | -83.00342 | 337° | 7km/h | 11733m | -7.7m/s | -46.2°C | 0% | 0hPa | 0V | 00:00:00 | 00:00:00 | 00:00:00 | |
| ARGUS2 | 2026-08-31 01:24:40 | 27.67768 | -83.00316 | 317° | 7km/h | 11914m | -7.8m/s | -47.9°C | 0% | 0hPa | 0V | 00:00:00 | 00:00:00 | 00:00:00 | |
| ARGUS2 | 2026-08-31 01:21:15 | 27.67427 | -83.00149 | 315° | 7km/h | 13445m | -7.9m/s | -59.9°C | 0% | 0hPa | 0V | 00:00:00 | 00:00:00 | 00:00:00 | |
| ARGUS2 | 2026-08-31 01:20:49 | 27.67385 | -83.00110 | 306° | 5km/h | 13650m | -7.8m/s | -61.6°C | 0% | 0hPa | 0V | 00:00:00 | 00:00:00 | 00:00:00 | |
| ARGUS2 | 2026-08-31 01:20:29 | 27.67340 | -83.00067 | 329° | 16km/h | 13813m | -8.4m/s | -62.3°C | 0% | 0hPa | 0V | 00:00:00 | 00:00:00 | 00:00:00 | |
| ARGUS2 | 2026-08-31 01:20:08 | 27.67283 | -83.00033 | 327° | 13km/h | 14000m | -8.6m/s | -63.7°C | 0% | 0hPa | 0V | 00:00:00 | 00:00:00 | 00:00:00 | |
| ARGUS2 | 2026-08-31 01:19:43 | 27.67227 | -82.99958 | 296° | 15km/h | 14217m | -8.8m/s | -65.2°C | 0% | 0hPa | 0V | 00:00:00 | 00:00:00 | 00:00:00 | |
| ARGUS2 | 2026-08-31 01:19:21 | 27.67209 | -82.99841 | 275° | 20km/h | 14423m | -8.9m/s | -66.6°C | 0% | 0hPa | 0V | 00:00:00 | 00:00:00 | 00:00:00 | |
| ARGUS2 | 2026-08-31 01:18:53 | 27.67225 | -82.99706 | 266° | 16km/h | 14680m | -9.0m/s | -68.9°C | 0% | 0hPa | 0V | 00:00:00 | 00:00:00 | 00:00:00 | |
| ARGUS2 | 2026-08-31 01:18:08 | 27.67219 | -82.99473 | 295° | 26km/h | 15070m | -9.4m/s | -70.9°C | 0% | 0hPa | 0V | 00:00:00 | 00:00:00 | 00:00:00 | |
| ARGUS2 | 2026-08-31 01:17:41 | 27.67144 | -82.99332 | 305° | 11km/h | 15324m | -9.5m/s | -69.1°C | 0% | 0hPa | 0V | 00:00:00 | 00:00:00 | 00:00:00 | |
| ARGUS2 | 2026-08-31 01:17:20 | 27.67081 | -82.99272 | 341° | 24km/h | 15533m | -9.6m/s | -63.9°C | 0% | 0hPa | 0V | 00:00:00 | 00:00:00 | 00:00:00 | |
| ARGUS2 | 2026-08-31 01:16:58 | 27.66982 | -82.99267 | 13° | 9km/h | 15745m | -9.7m/s | -64.5°C | 0% | 0hPa | 0V | 00:00:00 | 00:00:00 | 00:00:00 | |
| ARGUS2 | 2026-08-31 01:16:38 | 27.66929 | -82.99267 | 340° | 9km/h | 15941m | -9.7m/s | -64.8°C | 0% | 0hPa | 0V | 00:00:00 | 00:00:00 | 00:00:00 | |
| ARGUS2 | 2026-08-31 01:16:06 | 27.66905 | -82.99287 | 85° | 9km/h | 16272m | -10.2m/s | -66.0°C | 0% | 0hPa | 0V | 00:00:00 | 00:00:00 | 00:00:00 | |
| ARGUS2 | 2026-08-31 01:15:43 | 27.66923 | -82.99364 | 132° | 16km/h | 16510m | -10.6m/s | -67.8°C | 0% | 0hPa | 0V | 00:00:00 | 00:00:00 | 00:00:00 | |
| ARGUS2 | 2026-08-31 01:15:22 | 27.66991 | -82.99406 | 159° | 16km/h | 16728m | -10.8m/s | -68.6°C | 0% | 0hPa | 0V | 00:00:00 | 00:00:00 | 00:00:00 | |
| ARGUS2 | 2026-08-31 01:15:00 | 27.67081 | -82.99416 | 195° | 16km/h | 16975m | -11.3m/s | -69.2°C | 0% | 0hPa | 0V | 00:00:00 | 00:00:00 | 00:00:00 | |
| ARGUS2 | 2026-08-31 01:14:34 | 27.67095 | -82.99338 | 304° | 22km/h | 17297m | -12.0m/s | -67.5°C | 0% | 0hPa | 0V | 00:00:00 | 00:00:00 | 00:00:00 | |
| ARGUS2 | 2026-08-31 01:14:13 | 27.67034 | -82.99247 | 322° | 15km/h | 17538m | -11.9m/s | -68.5°C | 0% | 0hPa | 0V | 00:00:00 | 00:00:00 | 00:00:00 | |
| ARGUS2 | 2026-08-31 01:13:51 | 27.67023 | -82.99204 | 254° | 9km/h | 17804m | -12.0m/s | -67.8°C | 0% | 0hPa | 0V | 00:00:00 | 00:00:00 | 00:00:00 | |
| ARGUS2 | 2026-08-31 01:13:30 | 27.67015 | -82.99117 | 239° | 11km/h | 18067m | -10.8m/s | -65.8°C | 0% | 0hPa | 0V | 00:00:00 | 00:00:00 | 00:00:00 | |
| ARGUS2 | 2026-08-31 01:13:09 | 27.67062 | -82.99008 | 240° | 33km/h | 18281m | -10.8m/s | -64.9°C | 0% | 0hPa | 0V | 00:00:00 | 00:00:00 | 00:00:00 | |
| ARGUS2 | 2026-08-31 01:12:48 | 27.67085 | -82.98815 | 281° | 37km/h | 18507m | -10.7m/s | -64.3°C | 0% | 0hPa | 0V | 00:00:00 | 00:00:00 | 00:00:00 | |
| ARGUS2 | 2026-08-31 01:12:28 | 27.67002 | -82.98585 | 298° | 44km/h | 18733m | -10.8m/s | -65.6°C | 0% | 0hPa | 0V | 00:00:00 | 00:00:00 | 00:00:00 | |
| ARGUS2 | 2026-08-31 01:12:06 | 27.66952 | -82.98444 | 277° | 13km/h | 18961m | -11.1m/s | -63.9°C | 0% | 0hPa | 0V | 00:00:00 | 00:00:00 | 00:00:00 | |
| ARGUS2 | 2026-08-31 01:11:44 | 27.67019 | -82.98275 | 239° | 49km/h | 19219m | -11.3m/s | -63.3°C | 0% | 0hPa | 0V | 00:00:00 | 00:00:00 | 00:00:00 | |
| ARGUS2 | 2026-08-31 01:11:23 | 27.67132 | -82.97984 | 261° | 55km/h | 19448m | -11.5m/s | -61.4°C | 0% | 0hPa | 0V | 00:00:00 | 00:00:00 | 00:00:00 | |
| ARGUS2 | 2026-08-31 01:10:42 | 27.67064 | -82.97433 | 298° | 40km/h | 19933m | -11.9m/s | -63.2°C | 0% | 0hPa | 0V | 00:00:00 | 00:00:00 | 00:00:00 | |
| ARGUS2 | 2026-08-31 01:10:20 | 27.67012 | -82.97250 | 273° | 22km/h | 20189m | -11.6m/s | -63.6°C | 0% | 0hPa | 0V | 00:00:00 | 00:00:00 | 00:00:00 | |
| ARGUS2 | 2026-08-31 01:09:59 | 27.67031 | -82.97123 | 246° | 26km/h | 20424m | -12.1m/s | -61.2°C | 0% | 0hPa | 0V | 00:00:00 | 00:00:00 | 00:00:00 | |
| ARGUS2 | 2026-08-31 01:09:37 | 27.67156 | -82.96966 | 226° | 44km/h | 20689m | -12.2m/s | -60.4°C | 0% | 0hPa | 0V | 00:00:00 | 00:00:00 | 00:00:00 | |
| ARGUS2 | 2026-08-31 01:09:16 | 27.67325 | -82.96768 | 229° | 53km/h | 20947m | -12.4m/s | -60.9°C | 0% | 0hPa | 0V | 00:00:00 | 00:00:00 | 00:00:00 | |
| ARGUS2 | 2026-08-31 01:08:56 | 27.67482 | -82.96490 | 249° | 58km/h | 21209m | -12.4m/s | -60.1°C | 0% | 0hPa | 0V | 00:00:00 | 00:00:00 | 00:00:00 | |
| ARGUS2 | 2026-08-31 01:08:36 | 27.67553 | -82.96168 | 257° | 60km/h | 21455m | -12.9m/s | -59.4°C | 0% | 0hPa | 0V | 00:00:00 | 00:00:00 | 00:00:00 | |
| ARGUS2 | 2026-08-31 01:08:14 | 27.67588 | -82.95824 | 266° | 53km/h | 21716m | -12.3m/s | -58.5°C | 0% | 0hPa | 0V | 00:00:00 | 00:00:00 | 00:00:00 | |
| ARGUS2 | 2026-08-31 01:07:53 | 27.67686 | -82.95515 | 254° | 58km/h | 21987m | -13.2m/s | -57.9°C | 0% | 0hPa | 0V | 00:00:00 | 00:00:00 | 00:00:00 | |
| ARGUS2 | 2026-08-31 01:07:33 | 27.67762 | -82.95220 | 256° | 55km/h | 22252m | -13.1m/s | -57.8°C | 0% | 0hPa | 0V | 00:00:00 | 00:00:00 | 00:00:00 | |
| ARGUS2 | 2026-08-31 01:07:13 | 27.67801 | -82.94925 | 262° | 47km/h | 22536m | -13.6m/s | -56.8°C | 0% | 0hPa | 0V | 00:00:00 | 00:00:00 | 00:00:00 | |
| ARGUS2 | 2026-08-31 01:06:52 | 27.67834 | -82.94644 | 256° | 53km/h | 22813m | -14.0m/s | -55.9°C | 0% | 0hPa | 0V | 00:00:00 | 00:00:00 | 00:00:00 | |
| ARGUS2 | 2026-08-31 01:06:32 | 27.67870 | -82.94340 | 273° | 46km/h | 23112m | -14.7m/s | -56.4°C | 0% | 0hPa | 0V | 00:00:00 | 00:00:00 | 00:00:00 | |
| ARGUS2 | 2026-08-31 01:06:11 | 27.67859 | -82.94045 | 287° | 51km/h | 23407m | -15.3m/s | -55.6°C | 0% | 0hPa | 0V | 00:00:00 | 00:00:00 | 00:00:00 | |
| ARGUS2 | 2026-08-31 01:05:50 | 27.67833 | -82.93810 | 269° | 37km/h | 23722m | -14.9m/s | -55.4°C | 0% | 0hPa | 0V | 00:00:00 | 00:00:00 | 00:00:00 | |
| ARGUS2 | 2026-08-31 01:05:29 | 27.67895 | -82.93551 | 261° | 55km/h | 24037m | -14.9m/s | -56.2°C | 0% | 0hPa | 0V | 00:00:00 | 00:00:00 | 00:00:00 | |
| ARGUS2 | 2026-08-31 01:05:08 | 27.67906 | -82.93218 | 261° | 46km/h | 24359m | -15.3m/s | -54.9°C | 0% | 0hPa | 0V | 00:00:00 | 00:00:00 | 00:00:00 | |
| ARGUS2 | 2026-08-31 01:04:47 | 27.68006 | -82.92922 | 259° | 64km/h | 24684m | -15.8m/s | -53.2°C | 0% | 0hPa | 0V | 00:00:00 | 00:00:00 | 00:00:00 | |
| ARGUS2 | 2026-08-31 01:04:27 | 27.68014 | -82.92507 | 270° | 71km/h | 25024m | -16.1m/s | -52.2°C | 0% | 0hPa | 0V | 00:00:00 | 00:00:00 | 00:00:00 | |
| ARGUS2 | 2026-08-31 01:04:06 | 27.68023 | -82.92132 | 263° | 71km/h | 25359m | -17.0m/s | -52.8°C | 0% | 0hPa | 0V | 00:00:00 | 00:00:00 | 00:00:00 | |
| ARGUS2 | 2026-08-31 01:03:46 | 27.68058 | -82.91691 | 266° | 66km/h | 25725m | -18.0m/s | -52.5°C | 0% | 0hPa | 0V | 00:00:00 | 00:00:00 | 00:00:00 | |
| ARGUS2 | 2026-08-31 01:03:25 | 27.68074 | -82.91291 | 268° | 71km/h | 26091m | -18.7m/s | -50.9°C | 0% | 0hPa | 0V | 00:00:00 | 00:00:00 | 00:00:00 | |
| ARGUS2 | 2026-08-31 01:02:59 | 27.68132 | -82.90857 | 265° | 69km/h | 26604m | -19.4m/s | -49.4°C | 0% | 0hPa | 0V | 00:00:00 | 00:00:00 | 00:00:00 | |
| ARGUS2 | 2026-08-31 01:02:37 | 27.68138 | -82.90433 | 276° | 77km/h | 27019m | -20.0m/s | -47.6°C | 0% | 0hPa | 0V | 00:00:00 | 00:00:00 | 00:00:00 | |
| ARGUS2 | 2026-08-31 01:02:10 | 27.68100 | -82.89952 | 257° | 42km/h | 27577m | -21.1m/s | -46.1°C | 0% | 0hPa | 0V | 00:00:00 | 00:00:00 | 00:00:00 | |
| ARGUS2 | 2026-08-31 01:01:49 | 27.68176 | -82.89640 | 261° | 55km/h | 28029m | -22.3m/s | -45.8°C | 0% | 0hPa | 0V | 00:00:00 | 00:00:00 | 00:00:00 | |
| ARGUS2 | 2026-08-31 01:01:30 | 27.68223 | -82.89288 | 279° | 71km/h | 28480m | -23.2m/s | -46.3°C | 0% | 0hPa | 0V | 00:00:00 | 00:00:00 | 00:00:00 | |
| ARGUS2 | 2026-08-31 01:01:08 | 27.68116 | -82.88901 | 301° | 66km/h | 28976m | -23.9m/s | -45.9°C | 0% | 0hPa | 0V | 00:00:00 | 00:00:00 | 00:00:00 | |
| ARGUS2 | 2026-08-31 01:00:27 | 27.67857 | -82.88324 | 273° | 27km/h | 29985m | -25.4m/s | -45.4°C | 0% | 0hPa | 0V | 00:00:00 | 00:00:00 | 00:00:00 | |
| ARGUS2 | 2026-08-31 01:00:07 | 27.67872 | -82.88124 | 264° | 42km/h | 30509m | -27.0m/s | -45.9°C | 0% | 0hPa | 0V | 00:00:00 | 00:00:00 | 00:00:00 | |
| ARGUS2 | 2026-08-31 00:59:47 | 27.67919 | -82.87823 | 265° | 60km/h | 31091m | -28.7m/s | -44.3°C | 0% | 0hPa | 0V | 00:00:00 | 00:00:00 | 00:00:00 | |
| ARGUS2 | 2026-08-31 00:59:12 | 27.67951 | -82.87327 | 241° | 26km/h | 32124m | -32.7m/s | -35.9°C | 0% | 0hPa | 0V | 00:00:00 | 00:00:00 | 00:00:00 | |
| ARGUS2 | 2026-08-31 00:58:51 | 27.68164 | -82.87169 | 225° | 55km/h | 32820m | -34.8m/s | -35.7°C | 0% | 0hPa | 0V | 00:00:00 | 00:00:00 | 00:00:00 | |
| ARGUS2 | 2026-08-31 00:58:30 | 27.68433 | -82.86958 | 239° | 71km/h | 33570m | -39.8m/s | -37.3°C | 0% | 0hPa | 0V | 00:00:00 | 00:00:00 | 00:00:00 | |
| ARGUS2 | 2026-08-31 00:58:10 | 27.68594 | -82.86640 | 271° | 26km/h | 34268m | -37.2m/s | 0°C | 0% | 0hPa | 0V | 00:00:00 | 00:00:00 | 00:00:00 | |
| ARGUS2 | 2026-08-31 00:57:44 | 27.68642 | -82.86275 | 290° | 71km/h | 35015m | 6.8m/s | -33.5°C | 0% | 0hPa | 0V | 00:00:00 | 00:00:00 | 00:00:00 | |
| ARGUS2 | 2026-08-31 00:57:22 | 27.68748 | -82.86000 | 179° | 38km/h | 34886m | 7.2m/s | -33.3°C | 0% | 0hPa | 0V | 00:00:00 | 00:00:00 | 00:00:00 | |
| ARGUS2 | 2026-08-31 00:57:01 | 27.68932 | -82.85744 | 254° | 97km/h | 34752m | 3.3m/s | -32.9°C | 0% | 0hPa | 0V | 00:00:00 | 00:00:00 | 00:00:00 | |
| ARGUS2 | 2026-08-31 00:56:40 | 27.68997 | -82.85497 | 152° | 15km/h | 34615m | 4.6m/s | -33.2°C | 0% | 0hPa | 0V | 00:00:00 | 00:00:00 | 00:00:00 | |
| ARGUS2 | 2026-08-31 00:56:20 | 27.69095 | -82.85256 | 249° | 95km/h | 34480m | 10.3m/s | -33.5°C | 0% | 0hPa | 0V | 00:00:00 | 00:00:00 | 00:00:00 | |
| ARGUS2 | 2026-08-31 00:55:59 | 27.69136 | -82.84949 | 299° | 13km/h | 34342m | 10.0m/s | -34.2°C | 0% | 0hPa | 0V | 00:00:00 | 00:00:00 | 00:00:00 | |
| ARGUS2 | 2026-08-31 00:55:38 | 27.69223 | -82.84701 | 203° | 69km/h | 34224m | 4.3m/s | -35.5°C | 0% | 0hPa | 0V | 00:00:00 | 00:00:00 | 00:00:00 | |
| ARGUS2 | 2026-08-31 00:55:17 | 27.69336 | -82.84367 | 294° | 78km/h | 34104m | 9.7m/s | -36.9°C | 0% | 0hPa | 0V | 00:00:00 | 00:00:00 | 00:00:00 | |
| ARGUS2 | 2026-08-31 00:54:57 | 27.69430 | -82.84083 | 200° | 46km/h | 33997m | 4.0m/s | -37.7°C | 0% | 0hPa | 0V | 00:00:00 | 00:00:00 | 00:00:00 | |
| ARGUS2 | 2026-08-31 00:54:37 | 27.69607 | -82.83731 | 263° | 120km/h | 33875m | 2.8m/s | -38.5°C | 0% | 0hPa | 0V | 00:00:00 | 00:00:00 | 00:00:00 | |
| ARGUS2 | 2026-08-31 00:54:16 | 27.69743 | -82.83414 | 186° | 18km/h | 33770m | 5.4m/s | -39.5°C | 0% | 0hPa | 0V | 00:00:00 | 00:00:00 | 00:00:00 | |
| ARGUS2 | 2026-08-31 00:53:55 | 27.69964 | -82.83182 | 242° | 82km/h | 33650m | 5.3m/s | -39.1°C | 0% | 0hPa | 0V | 00:00:00 | 00:00:00 | 00:00:00 | |
| ARGUS2 | 2026-08-31 00:53:34 | 27.70139 | -82.83008 | 165° | 49km/h | 33524m | 2.5m/s | -39.5°C | 0% | 0hPa | 0V | 00:00:00 | 00:00:00 | 00:00:00 | |
| ARGUS2 | 2026-08-31 00:53:13 | 27.70398 | -82.82800 | 243° | 91km/h | 33383m | 5.8m/s | -39.5°C | 0% | 0hPa | 0V | 00:00:00 | 00:00:00 | 00:00:00 | |
| ARGUS2 | 2026-08-31 00:52:52 | 27.70638 | -82.82608 | 197° | 44km/h | 33253m | 11.4m/s | -38.7°C | 0% | 0hPa | 0V | 00:00:00 | 00:00:00 | 00:00:00 | |
| ARGUS2 | 2026-08-31 00:52:31 | 27.70891 | -82.82456 | 189° | 69km/h | 33116m | 1.2m/s | -37.6°C | 0% | 0hPa | 0V | 00:00:00 | 00:00:00 | 00:00:00 | |
| ARGUS2 | 2026-08-31 00:52:11 | 27.71120 | -82.82308 | 227° | 51km/h | 32985m | 12.1m/s | -36.8°C | 0% | 0hPa | 0V | 00:00:00 | 00:00:00 | 00:00:00 | |
| ARGUS2 | 2026-08-31 00:51:50 | 27.71382 | -82.82156 | 219° | 66km/h | 32847m | 3.2m/s | -36.2°C | 0% | 0hPa | 0V | 00:00:00 | 00:00:00 | 00:00:00 | |
| ARGUS2 | 2026-08-31 00:51:30 | 27.71620 | -82.82029 | 177° | 40km/h | 32708m | 12.2m/s | -36.2°C | 0% | 0hPa | 0V | 00:00:00 | 00:00:00 | 00:00:00 | |
| ARGUS2 | 2026-08-31 00:51:09 | 27.71786 | -82.81919 | 252° | 24km/h | 32577m | 6.2m/s | -36.1°C | 0% | 0hPa | 0V | 00:00:00 | 00:00:00 | 00:00:00 | |
| ARGUS2 | 2026-08-31 00:50:48 | 27.71917 | -82.81764 | 225° | 82km/h | 32435m | 2.4m/s | -36.2°C | 0% | 0hPa | 0V | 00:00:00 | 00:00:00 | 00:00:00 | |
| ARGUS2 | 2026-08-31 00:50:28 | 27.71977 | -82.81617 | 348° | 31km/h | 32294m | 7.8m/s | -38.6°C | 0% | 0hPa | 0V | 00:00:00 | 00:00:00 | 00:00:00 | |
| ARGUS2 | 2026-08-31 00:49:46 | 27.71929 | -82.81284 | 247° | 69km/h | 32042m | 7.0m/s | -40.0°C | 0% | 0hPa | 0V | 00:00:00 | 00:00:00 | 00:00:00 | |
| ARGUS2 | 2026-08-31 00:49:26 | 27.71903 | -82.81013 | 322° | 44km/h | 31911m | 10.7m/s | -43.3°C | 0% | 0hPa | 0V | 00:00:00 | 00:00:00 | 00:00:00 | |
| ARGUS2 | 2026-08-31 00:49:05 | 27.71862 | -82.80735 | 291° | 60km/h | 31792m | 4.6m/s | -44.3°C | 0% | 0hPa | 0V | 00:00:00 | 00:00:00 | 00:00:00 | |
| ARGUS2 | 2026-08-31 00:48:44 | 27.71878 | -82.80443 | 256° | 78km/h | 31674m | 2.4m/s | -44.7°C | 0% | 0hPa | 0V | 00:00:00 | 00:00:00 | 00:00:00 | |
| ARGUS2 | 2026-08-31 00:48:24 | 27.71905 | -82.80119 | 297° | 46km/h | 31561m | 1.5m/s | -45.4°C | 0% | 0hPa | 0V | 00:00:00 | 00:00:00 | 00:00:00 | |
| ARGUS2 | 2026-08-31 00:48:03 | 27.71955 | -82.79822 | 232° | 57km/h | 31448m | 3.3m/s | -45.5°C | 0% | 0hPa | 0V | 00:00:00 | 00:00:00 | 00:00:00 | |
| ARGUS2 | 2026-08-31 00:47:42 | 27.71990 | -82.79558 | 301° | 22km/h | 31336m | 3.5m/s | -45.9°C | 0% | 0hPa | 0V | 00:00:00 | 00:00:00 | 00:00:00 | |
| ARGUS2 | 2026-08-31 00:47:22 | 27.72038 | -82.79269 | 243° | 73km/h | 31214m | 6.3m/s | -46.4°C | 0% | 0hPa | 0V | 00:00:00 | 00:00:00 | 00:00:00 | |
| ARGUS2 | 2026-08-31 00:47:01 | 27.72123 | -82.79018 | 266° | 29km/h | 31091m | 8.5m/s | -46.9°C | 0% | 0hPa | 0V | 00:00:00 | 00:00:00 | 00:00:00 | |
| ARGUS2 | 2026-08-31 00:46:41 | 27.72210 | -82.78777 | 233° | 64km/h | 30950m | 8.1m/s | -46.7°C | 0% | 0hPa | 0V | 00:00:00 | 00:00:00 | 00:00:00 | |
| ARGUS2 | 2026-08-31 00:46:20 | 27.72268 | -82.78574 | 271° | 40km/h | 30819m | 8.2m/s | -46.6°C | 0% | 0hPa | 0V | 00:00:00 | 00:00:00 | 00:00:00 | |
| ARGUS2 | 2026-08-31 00:45:57 | 27.72292 | -82.78368 | 232° | 53km/h | 30661m | 4.3m/s | -45.8°C | 0% | 0hPa | 0V | 00:00:00 | 00:00:00 | 00:00:00 | |
| ARGUS2 | 2026-08-31 00:45:37 | 27.72312 | -82.78185 | 272° | 27km/h | 30522m | 6.9m/s | -45.3°C | 0% | 0hPa | 0V | 00:00:00 | 00:00:00 | 00:00:00 | |
| ARGUS2 | 2026-08-31 00:45:16 | 27.72345 | -82.77991 | 296° | 33km/h | 30375m | 10.6m/s | -44.7°C | 0% | 0hPa | 0V | 00:00:00 | 00:00:00 | 00:00:00 | |
| ARGUS2 | 2026-08-31 00:44:56 | 27.72358 | -82.77820 | 248° | 11km/h | 30240m | 7.6m/s | -44.5°C | 0% | 0hPa | 0V | 00:00:00 | 00:00:00 | 00:00:00 | |
| ARGUS2 | 2026-08-31 00:44:35 | 27.72365 | -82.77673 | 318° | 40km/h | 30097m | 7.2m/s | -44.0°C | 0% | 0hPa | 0V | 00:00:00 | 00:00:00 | 00:00:00 | |
| ARGUS2 | 2026-08-31 00:44:15 | 27.72314 | -82.77570 | 230° | 33km/h | 29975m | 8.6m/s | -43.6°C | 0% | 0hPa | 0V | 00:00:00 | 00:00:00 | 00:00:00 | |
| ARGUS2 | 2026-08-31 00:43:55 | 27.72276 | -82.77502 | 322° | 26km/h | 29844m | 7.2m/s | -42.7°C | 0% | 0hPa | 0V | 00:00:00 | 00:00:00 | 00:00:00 | |
| ARGUS2 | 2026-08-31 00:43:34 | 27.72233 | -82.77423 | 11° | 38km/h | 29711m | 4.5m/s | -42.0°C | 0% | 0hPa | 0V | 00:00:00 | 00:00:00 | 00:00:00 | |
| ARGUS2 | 2026-08-31 00:43:14 | 27.72202 | -82.77328 | 219° | 26km/h | 29585m | 4.0m/s | -41.8°C | 0% | 0hPa | 0V | 00:00:00 | 00:00:00 | 00:00:00 | |
| ARGUS2 | 2026-08-31 00:42:31 | 27.72063 | -82.76946 | 267° | 60km/h | 29319m | 3.6m/s | -42.4°C | 0% | 0hPa | 0V | 00:00:00 | 00:00:00 | 00:00:00 | |
| ARGUS2 | 2026-08-31 00:42:10 | 27.71953 | -82.76652 | 307° | 60km/h | 29186m | 3.7m/s | -43.2°C | 0% | 0hPa | 0V | 00:00:00 | 00:00:00 | 00:00:00 | |
| ARGUS2 | 2026-08-31 00:41:50 | 27.71863 | -82.76278 | 275° | 78km/h | 29051m | 5.2m/s | -44.0°C | 0% | 0hPa | 0V | 00:00:00 | 00:00:00 | 00:00:00 | |
| ARGUS2 | 2026-08-31 00:41:27 | 27.71721 | -82.75880 | 295° | 77km/h | 28908m | 7.2m/s | -44.1°C | 0% | 0hPa | 0V | 00:00:00 | 00:00:00 | 00:00:00 | |
| ARGUS2 | 2026-08-31 00:41:07 | 27.71551 | -82.75483 | 276° | 75km/h | 28773m | 6.9m/s | -43.5°C | 0% | 0hPa | 0V | 00:00:00 | 00:00:00 | 00:00:00 | |
| ARGUS2 | 2026-08-31 00:40:46 | 27.71426 | -82.75062 | 301° | 71km/h | 28650m | 7.9m/s | -43.1°C | 0% | 0hPa | 0V | 00:00:00 | 00:00:00 | 00:00:00 | |
| ARGUS2 | 2026-08-31 00:40:25 | 27.71330 | -82.74607 | 262° | 86km/h | 28520m | 7.3m/s | -44.0°C | 0% | 0hPa | 0V | 00:00:00 | 00:00:00 | 00:00:00 | |
| ARGUS2 | 2026-08-31 00:40:05 | 27.71294 | -82.74180 | 297° | 82km/h | 28393m | 7.1m/s | -45.1°C | 0% | 0hPa | 0V | 00:00:00 | 00:00:00 | 00:00:00 | |
| ARGUS2 | 2026-08-31 00:39:45 | 27.71267 | -82.73681 | 265° | 89km/h | 28253m | 7.1m/s | -45.0°C | 0% | 0hPa | 0V | 00:00:00 | 00:00:00 | 00:00:00 | |
| ARGUS2 | 2026-08-31 00:39:24 | 27.71305 | -82.73238 | 244° | 71km/h | 28120m | 4.6m/s | -45.4°C | 0% | 0hPa | 0V | 00:00:00 | 00:00:00 | 00:00:00 | |
| ARGUS2 | 2026-08-31 00:39:04 | 27.71328 | -82.72817 | 272° | 62km/h | 27986m | 6.5m/s | -45.1°C | 0% | 0hPa | 0V | 00:00:00 | 00:00:00 | 00:00:00 | |
| ARGUS2 | 2026-08-31 00:38:43 | 27.71372 | -82.72384 | 263° | 80km/h | 27860m | 6.7m/s | -45.3°C | 0% | 0hPa | 0V | 00:00:00 | 00:00:00 | 00:00:00 | |
| ARGUS2 | 2026-08-31 00:38:22 | 27.71408 | -82.71986 | 256° | 80km/h | 27737m | 7.1m/s | -45.3°C | 0% | 0hPa | 0V | 00:00:00 | 00:00:00 | 00:00:00 | |
| ARGUS2 | 2026-08-31 00:38:01 | 27.71446 | -82.71615 | 245° | 69km/h | 27619m | 5.9m/s | -46.1°C | 0% | 0hPa | 0V | 00:00:00 | 00:00:00 | 00:00:00 | |
| ARGUS2 | 2026-08-31 00:37:41 | 27.71436 | -82.71268 | 283° | 64km/h | 27505m | 3.5m/s | -47.2°C | 0% | 0hPa | 0V | 00:00:00 | 00:00:00 | 00:00:00 | |
| ARGUS2 | 2026-08-31 00:37:20 | 27.71393 | -82.70856 | 294° | 57km/h | 27387m | 4.8m/s | -47.7°C | 0% | 0hPa | 0V | 00:00:00 | 00:00:00 | 00:00:00 | |
| ARGUS2 | 2026-08-31 00:37:00 | 27.71325 | -82.70423 | 260° | 95km/h | 27279m | 3.9m/s | -47.9°C | 0% | 0hPa | 0V | 00:00:00 | 00:00:00 | 00:00:00 | |
| ARGUS2 | 2026-08-31 00:36:40 | 27.71283 | -82.69947 | 271° | 82km/h | 27166m | 6.2m/s | -48.5°C | 0% | 0hPa | 0V | 00:00:00 | 00:00:00 | 00:00:00 | |
| ARGUS2 | 2026-08-31 00:36:19 | 27.71259 | -82.69469 | 282° | 86km/h | 27060m | 5.7m/s | -49.1°C | 0% | 0hPa | 0V | 00:00:00 | 00:00:00 | 00:00:00 | |
| ARGUS2 | 2026-08-31 00:35:58 | 27.71248 | -82.69022 | 293° | 51km/h | 26944m | 3.1m/s | -49.9°C | 0% | 0hPa | 0V | 00:00:00 | 00:00:00 | 00:00:00 | |
| ARGUS2 | 2026-08-31 00:35:39 | 27.71271 | -82.68623 | 274° | 69km/h | 26831m | 8.0m/s | -50.9°C | 0% | 0hPa | 0V | 00:00:00 | 00:00:00 | 00:00:00 | |
| ARGUS2 | 2026-08-31 00:35:18 | 27.71292 | -82.68172 | 272° | 69km/h | 26706m | 6.9m/s | -51.4°C | 0% | 0hPa | 0V | 00:00:00 | 00:00:00 | 00:00:00 | |
| ARGUS2 | 2026-08-31 00:34:57 | 27.71323 | -82.67841 | 263° | 73km/h | 26589m | 4.4m/s | -51.4°C | 0% | 0hPa | 0V | 00:00:00 | 00:00:00 | 00:00:00 | |
| ARGUS2 | 2026-08-31 00:34:37 | 27.71336 | -82.67557 | 263° | 55km/h | 26466m | 5.9m/s | -51.6°C | 0% | 0hPa | 0V | 00:00:00 | 00:00:00 | 00:00:00 | |
| ARGUS2 | 2026-08-31 00:34:17 | 27.71331 | -82.67230 | 260° | 84km/h | 26351m | 9.7m/s | -51.4°C | 0% | 0hPa | 0V | 00:00:00 | 00:00:00 | 00:00:00 | |
| ARGUS2 | 2026-08-31 00:33:56 | 27.71341 | -82.66809 | 265° | 71km/h | 26233m | 6.2m/s | -52.5°C | 0% | 0hPa | 0V | 00:00:00 | 00:00:00 | 00:00:00 | |
| ARGUS2 | 2026-08-31 00:33:35 | 27.71334 | -82.66349 | 269° | 78km/h | 26112m | 6.3m/s | -53.1°C | 0% | 0hPa | 0V | 00:00:00 | 00:00:00 | 00:00:00 | |
| ARGUS2 | 2026-08-31 00:33:14 | 27.71326 | -82.65916 | 275° | 71km/h | 25994m | 6.4m/s | -53.7°C | 0% | 0hPa | 0V | 00:00:00 | 00:00:00 | 00:00:00 | |
| ARGUS2 | 2026-08-31 00:32:53 | 27.71338 | -82.65498 | 265° | 71km/h | 25867m | 7.5m/s | -53.8°C | 0% | 0hPa | 0V | 00:00:00 | 00:00:00 | 00:00:00 | |
| ARGUS2 | 2026-08-31 00:32:33 | 27.71353 | -82.65068 | 262° | 91km/h | 25745m | 7.0m/s | -53.5°C | 0% | 0hPa | 0V | 00:00:00 | 00:00:00 | 00:00:00 | |
| ARGUS2 | 2026-08-31 00:32:12 | 27.71396 | -82.64571 | 273° | 91km/h | 25607m | 7.9m/s | -53.2°C | 0% | 0hPa | 0V | 00:00:00 | 00:00:00 | 00:00:00 | |
| ARGUS2 | 2026-08-31 00:31:52 | 27.71451 | -82.64130 | 257° | 89km/h | 25473m | 4.3m/s | -53.1°C | 0% | 0hPa | 0V | 00:00:00 | 00:00:00 | 00:00:00 | |
| ARGUS2 | 2026-08-31 00:31:31 | 27.71507 | -82.63689 | 249° | 47km/h | 25328m | 5.6m/s | -52.5°C | 0% | 0hPa | 0V | 00:00:00 | 00:00:00 | 00:00:00 | |
| ARGUS2 | 2026-08-31 00:31:11 | 27.71538 | -82.63314 | 267° | 49km/h | 25189m | 7.4m/s | -52.6°C | 0% | 0hPa | 0V | 00:00:00 | 00:00:00 | 00:00:00 | |
| ARGUS2 | 2026-08-31 00:30:50 | 27.71553 | -82.62928 | 266° | 58km/h | 25046m | 7.2m/s | -52.2°C | 0% | 0hPa | 0V | 00:00:00 | 00:00:00 | 00:00:00 | |
| ARGUS2 | 2026-08-31 00:30:30 | 27.71599 | -82.62524 | 256° | 55km/h | 24919m | 4.4m/s | -52.0°C | 0% | 0hPa | 0V | 00:00:00 | 00:00:00 | 00:00:00 | |
| ARGUS2 | 2026-08-31 00:30:09 | 27.71633 | -82.62083 | 261° | 69km/h | 24789m | 6.6m/s | -51.9°C | 0% | 0hPa | 0V | 00:00:00 | 00:00:00 | 00:00:00 | |
| ARGUS2 | 2026-08-31 00:29:50 | 27.71667 | -82.61707 | 266° | 62km/h | 24679m | 7.0m/s | -53.1°C | 0% | 0hPa | 0V | 00:00:00 | 00:00:00 | 00:00:00 | |
| ARGUS2 | 2026-08-31 00:29:29 | 27.71781 | -82.61365 | 261° | 51km/h | 24572m | 4.4m/s | -53.8°C | 0% | 0hPa | 0V | 00:00:00 | 00:00:00 | 00:00:00 | |
| ARGUS2 | 2026-08-31 00:29:08 | 27.71882 | -82.61095 | 243° | 49km/h | 24474m | 5.6m/s | -54.8°C | 0% | 0hPa | 0V | 00:00:00 | 00:00:00 | 00:00:00 | |
| ARGUS2 | 2026-08-31 00:28:48 | 27.71941 | -82.60852 | 247° | 58km/h | 24364m | 6.2m/s | -55.3°C | 0% | 0hPa | 0V | 00:00:00 | 00:00:00 | 00:00:00 | |
| ARGUS2 | 2026-08-31 00:28:26 | 27.71962 | -82.60557 | 272° | 62km/h | 24254m | 5.4m/s | -56.4°C | 0% | 0hPa | 0V | 00:00:00 | 00:00:00 | 00:00:00 | |
| ARGUS2 | 2026-08-31 00:28:09 | 27.71959 | -82.60204 | 274° | 60km/h | 24146m | 5.9m/s | -56.2°C | 0% | 0hPa | 0V | 00:00:00 | 00:00:00 | 00:00:00 | |
| ARGUS2 | 2026-08-31 00:27:25 | 27.72046 | -82.59559 | 255° | 47km/h | 23915m | 7.0m/s | -55.4°C | 0% | 0hPa | 0V | 00:00:00 | 00:00:00 | 00:00:00 | |
| ARGUS2 | 2026-08-31 00:27:04 | 27.72154 | -82.59338 | 245° | 31km/h | 23791m | 4.9m/s | -55.3°C | 0% | 0hPa | 0V | 00:00:00 | 00:00:00 | 00:00:00 | |
| ARGUS2 | 2026-08-31 00:26:44 | 27.72212 | -82.59153 | 274° | 37km/h | 23670m | 7.6m/s | -55.5°C | 0% | 0hPa | 0V | 00:00:00 | 00:00:00 | 00:00:00 | |
| ARGUS2 | 2026-08-31 00:26:23 | 27.72244 | -82.58952 | 260° | 31km/h | 23553m | 5.5m/s | -55.9°C | 0% | 0hPa | 0V | 00:00:00 | 00:00:00 | 00:00:00 | |
| ARGUS2 | 2026-08-31 00:26:03 | 27.72228 | -82.58732 | 248° | 26km/h | 23445m | 5.5m/s | -56.7°C | 0% | 0hPa | 0V | 00:00:00 | 00:00:00 | 00:00:00 | |
| ARGUS2 | 2026-08-31 00:25:43 | 27.72257 | -82.58443 | 267° | 47km/h | 23338m | 7.3m/s | -57.5°C | 0% | 0hPa | 0V | 00:00:00 | 00:00:00 | 00:00:00 | |
| ARGUS2 | 2026-08-31 00:25:22 | 27.72299 | -82.58192 | 266° | 40km/h | 23231m | 6.7m/s | -57.0°C | 0% | 0hPa | 0V | 00:00:00 | 00:00:00 | 00:00:00 | |
| ARGUS2 | 2026-08-31 00:24:41 | 27.72394 | -82.57679 | 257° | 46km/h | 23009m | 6.7m/s | -56.0°C | 0% | 0hPa | 0V | 00:00:00 | 00:00:00 | 00:00:00 | |
| ARGUS2 | 2026-08-31 00:24:21 | 27.72468 | -82.57398 | 237° | 55km/h | 22892m | 7.0m/s | -55.9°C | 0% | 0hPa | 0V | 00:00:00 | 00:00:00 | 00:00:00 | |
| ARGUS2 | 2026-08-31 00:24:00 | 27.72562 | -82.57128 | 258° | 60km/h | 22784m | 5.3m/s | -55.6°C | 0% | 0hPa | 0V | 00:00:00 | 00:00:00 | 00:00:00 | |
| ARGUS2 | 2026-08-31 00:23:40 | 27.72624 | -82.56845 | 252° | 68km/h | 22665m | 6.2m/s | -55.8°C | 0% | 0hPa | 0V | 00:00:00 | 00:00:00 | 00:00:00 | |
| ARGUS2 | 2026-08-31 00:23:19 | 27.72664 | -82.56589 | 265° | 35km/h | 22552m | 5.5m/s | -56.1°C | 0% | 0hPa | 0V | 00:00:00 | 00:00:00 | 00:00:00 | |
| ARGUS2 | 2026-08-31 00:22:58 | 27.72697 | -82.56368 | 254° | 38km/h | 22444m | 5.3m/s | -56.0°C | 0% | 0hPa | 0V | 00:00:00 | 00:00:00 | 00:00:00 | |
| ARGUS2 | 2026-08-31 00:22:37 | 27.72737 | -82.56123 | 297° | 46km/h | 22330m | 6.5m/s | -56.2°C | 0% | 0hPa | 0V | 00:00:00 | 00:00:00 | 00:00:00 | |
| ARGUS2 | 2026-08-31 00:22:17 | 27.72740 | -82.55903 | 274° | 49km/h | 22225m | 5.2m/s | -56.8°C | 0% | 0hPa | 0V | 00:00:00 | 00:00:00 | 00:00:00 | |
| ARGUS2 | 2026-08-31 00:21:57 | 27.72796 | -82.55653 | 240° | 29km/h | 22113m | 5.0m/s | -56.7°C | 0% | 0hPa | 0V | 00:00:00 | 00:00:00 | 00:00:00 | |
| ARGUS2 | 2026-08-31 00:21:36 | 27.72860 | -82.55426 | 246° | 46km/h | 22006m | 5.0m/s | -56.9°C | 0% | 0hPa | 0V | 00:00:00 | 00:00:00 | 00:00:00 | |
| ARGUS2 | 2026-08-31 00:20:55 | 27.73004 | -82.54926 | 256° | 69km/h | 21793m | 3.5m/s | -58.4°C | 0% | 0hPa | 0V | 00:00:00 | 00:00:00 | 00:00:00 | |
| ARGUS2 | 2026-08-31 00:20:35 | 27.73022 | -82.54668 | 272° | 46km/h | 21688m | 5.5m/s | -59.3°C | 0% | 0hPa | 0V | 00:00:00 | 00:00:00 | 00:00:00 | |
| ARGUS2 | 2026-08-31 00:20:14 | 27.73030 | -82.54362 | 271° | 46km/h | 21587m | 4.6m/s | -59.2°C | 0% | 0hPa | 0V | 00:00:00 | 00:00:00 | 00:00:00 | |
| ARGUS2 | 2026-08-31 00:19:54 | 27.73065 | -82.54040 | 258° | 55km/h | 21477m | 4.9m/s | -60.3°C | 0% | 0hPa | 0V | 00:00:00 | 00:00:00 | 00:00:00 | |
| ARGUS2 | 2026-08-31 00:19:33 | 27.73087 | -82.53713 | 263° | 62km/h | 21370m | 4.4m/s | -61.0°C | 0% | 0hPa | 0V | 00:00:00 | 00:00:00 | 00:00:00 | |
| ARGUS2 | 2026-08-31 00:19:13 | 27.73168 | -82.53357 | 264° | 53km/h | 21254m | 6.4m/s | -60.7°C | 0% | 0hPa | 0V | 00:00:00 | 00:00:00 | 00:00:00 | |
| ARGUS2 | 2026-08-31 00:18:52 | 27.73282 | -82.53086 | 250° | 53km/h | 21149m | 4.7m/s | -61.9°C | 0% | 0hPa | 0V | 00:00:00 | 00:00:00 | 00:00:00 | |
| ARGUS2 | 2026-08-31 00:18:32 | 27.73449 | -82.52828 | 230° | 60km/h | 21031m | 5.6m/s | -61.5°C | 0% | 0hPa | 0V | 00:00:00 | 00:00:00 | 00:00:00 | |
| ARGUS2 | 2026-08-31 00:18:10 | 27.73612 | -82.52596 | 234° | 55km/h | 20915m | 4.3m/s | -61.4°C | 0% | 0hPa | 0V | 00:00:00 | 00:00:00 | 00:00:00 | |
| ARGUS2 | 2026-08-31 00:17:50 | 27.73730 | -82.52397 | 238° | 40km/h | 20811m | 6.6m/s | -61.6°C | 0% | 0hPa | 0V | 00:00:00 | 00:00:00 | 00:00:00 | |
| ARGUS2 | 2026-08-31 00:17:29 | 27.73827 | -82.52212 | 245° | 37km/h | 20691m | 7.2m/s | -61.7°C | 0% | 0hPa | 0V | 00:00:00 | 00:00:00 | 00:00:00 | |
| ARGUS2 | 2026-08-31 00:17:09 | 27.73895 | -82.52059 | 249° | 18km/h | 20579m | 5.6m/s | -62.7°C | 0% | 0hPa | 0V | 00:00:00 | 00:00:00 | 00:00:00 | |
| ARGUS2 | 2026-08-31 00:16:49 | 27.73928 | -82.51926 | 267° | 35km/h | 20463m | 5.6m/s | -63.8°C | 0% | 0hPa | 0V | 00:00:00 | 00:00:00 | 00:00:00 | |
| ARGUS2 | 2026-08-31 00:16:28 | 27.73951 | -82.51789 | 245° | 26km/h | 20350m | 6.0m/s | -64.8°C | 0% | 0hPa | 0V | 00:00:00 | 00:00:00 | 00:00:00 | |
| ARGUS2 | 2026-08-31 00:16:08 | 27.73971 | -82.51653 | 280° | 24km/h | 20231m | 7.2m/s | -64.1°C | 0% | 0hPa | 0V | 00:00:00 | 00:00:00 | 00:00:00 | |
| ARGUS2 | 2026-08-31 00:15:47 | 27.73958 | -82.51497 | 298° | 20km/h | 20119m | 5.7m/s | -63.9°C | 0% | 0hPa | 0V | 00:00:00 | 00:00:00 | 00:00:00 | |
| ARGUS2 | 2026-08-31 00:15:27 | 27.73919 | -82.51299 | 279° | 40km/h | 20005m | 5.8m/s | -63.8°C | 0% | 0hPa | 0V | 00:00:00 | 00:00:00 | 00:00:00 | |
| ARGUS2 | 2026-08-31 00:15:06 | 27.73862 | -82.51059 | 292° | 37km/h | 19898m | 4.4m/s | -64.1°C | 0% | 0hPa | 0V | 00:00:00 | 00:00:00 | 00:00:00 | |
| ARGUS2 | 2026-08-31 00:14:46 | 27.73818 | -82.50768 | 282° | 68km/h | 19779m | 6.2m/s | -63.4°C | 0% | 0hPa | 0V | 00:00:00 | 00:00:00 | 00:00:00 | |
| ARGUS2 | 2026-08-31 00:14:25 | 27.73847 | -82.50467 | 252° | 64km/h | 19661m | 5.5m/s | -62.6°C | 0% | 0hPa | 0V | 00:00:00 | 00:00:00 | 00:00:00 | |
| ARGUS2 | 2026-08-31 00:14:05 | 27.73932 | -82.50135 | 249° | 58km/h | 19547m | 4.9m/s | -62.1°C | 0% | 0hPa | 0V | 00:00:00 | 00:00:00 | 00:00:00 | |
| ARGUS2 | 2026-08-31 00:13:44 | 27.74045 | -82.49833 | 243° | 51km/h | 19444m | 5.3m/s | -62.2°C | 0% | 0hPa | 0V | 00:00:00 | 00:00:00 | 00:00:00 | |
| ARGUS2 | 2026-08-31 00:13:24 | 27.74202 | -82.49535 | 243° | 53km/h | 19336m | 4.2m/s | -63.5°C | 0% | 0hPa | 0V | 00:00:00 | 00:00:00 | 00:00:00 | |
| ARGUS2 | 2026-08-31 00:13:02 | 27.74313 | -82.49308 | 229° | 33km/h | 19219m | 5.6m/s | -64.6°C | 0% | 0hPa | 0V | 00:00:00 | 00:00:00 | 00:00:00 | |
| ARGUS2 | 2026-08-31 00:12:42 | 27.74364 | -82.49157 | 272° | 22km/h | 19122m | 4.3m/s | -64.5°C | 0% | 0hPa | 0V | 00:00:00 | 00:00:00 | 00:00:00 | |
| ARGUS2 | 2026-08-31 00:12:01 | 27.74270 | -82.48933 | 307° | 35km/h | 18909m | 6.3m/s | -65.2°C | 0% | 0hPa | 0V | 00:00:00 | 00:00:00 | 00:00:00 | |
| ARGUS2 | 2026-08-31 00:11:40 | 27.74186 | -82.48753 | 309° | 33km/h | 18801m | 6.2m/s | -65.8°C | 0% | 0hPa | 0V | 00:00:00 | 00:00:00 | 00:00:00 | |
| ARGUS2 | 2026-08-31 00:11:20 | 27.74068 | -82.48543 | 294° | 53km/h | 18695m | 7.0m/s | -65.1°C | 0% | 0hPa | 0V | 00:00:00 | 00:00:00 | 00:00:00 | |
| ARGUS2 | 2026-08-31 00:11:00 | 27.73995 | -82.48300 | 292° | 37km/h | 18583m | 6.4m/s | -64.5°C | 0% | 0hPa | 0V | 00:00:00 | 00:00:00 | 00:00:00 | |
| ARGUS2 | 2026-08-31 00:10:39 | 27.73962 | -82.48096 | 264° | 37km/h | 18476m | 4.4m/s | -64.5°C | 0% | 0hPa | 0V | 00:00:00 | 00:00:00 | 00:00:00 | |
| ARGUS2 | 2026-08-31 00:09:58 | 27.73994 | -82.47828 | 267° | 11km/h | 18264m | 4.4m/s | -64.9°C | 0% | 0hPa | 0V | 00:00:00 | 00:00:00 | 00:00:00 | |
| ARGUS2 | 2026-08-31 00:09:37 | 27.73982 | -82.47721 | 297° | 15km/h | 18167m | 4.3m/s | -65.5°C | 0% | 0hPa | 0V | 00:00:00 | 00:00:00 | 00:00:00 | |
| ARGUS2 | 2026-08-31 00:09:17 | 27.73970 | -82.47662 | 296° | 11km/h | 18071m | 6.2m/s | -66.2°C | 0% | 0hPa | 0V | 00:00:00 | 00:00:00 | 00:00:00 | |
| ARGUS2 | 2026-08-31 00:08:57 | 27.73938 | -82.47567 | 287° | 20km/h | 17966m | 5.2m/s | -68.2°C | 0% | 0hPa | 0V | 00:00:00 | 00:00:00 | 00:00:00 | |
| ARGUS2 | 2026-08-31 00:08:36 | 27.73942 | -82.47510 | 287° | 7km/h | 17871m | 5.7m/s | -68.5°C | 0% | 0hPa | 0V | 00:00:00 | 00:00:00 | 00:00:00 | |
| ARGUS2 | 2026-08-31 00:08:16 | 27.73945 | -82.47499 | 353° | 11km/h | 17772m | 6.1m/s | -69.2°C | 0% | 0hPa | 0V | 00:00:00 | 00:00:00 | 00:00:00 | |
| ARGUS2 | 2026-08-31 00:07:54 | 27.73918 | -82.47507 | 301° | 9km/h | 17675m | 4.5m/s | -69.3°C | 0% | 0hPa | 0V | 00:00:00 | 00:00:00 | 00:00:00 | |
| ARGUS2 | 2026-08-31 00:07:34 | 27.73899 | -82.47475 | 301° | 13km/h | 17585m | 3.7m/s | -69.3°C | 0% | 0hPa | 0V | 00:00:00 | 00:00:00 | 00:00:00 | |
| ARGUS2 | 2026-08-31 00:07:13 | 27.73844 | -82.47394 | 293° | 20km/h | 17488m | 4.4m/s | -69.4°C | 0% | 0hPa | 0V | 00:00:00 | 00:00:00 | 00:00:00 | |
| ARGUS2 | 2026-08-31 00:06:53 | 27.73817 | -82.47293 | 310° | 18km/h | 17402m | 4.5m/s | -69.3°C | 0% | 0hPa | 0V | 00:00:00 | 00:00:00 | 00:00:00 | |
| ARGUS2 | 2026-08-31 00:06:12 | 27.73803 | -82.47130 | 304° | 7km/h | 17227m | 5.4m/s | -68.7°C | 0% | 0hPa | 0V | 00:00:00 | 00:00:00 | 00:00:00 | |
| ARGUS2 | 2026-08-31 00:05:51 | 27.73812 | -82.47090 | 197° | 15km/h | 17132m | 3.3m/s | -68.7°C | 0% | 0hPa | 0V | 00:00:00 | 00:00:00 | 00:00:00 | |
| ARGUS2 | 2026-08-31 00:05:31 | 27.73866 | -82.47107 | 136° | 29km/h | 17040m | 2.9m/s | -68.6°C | 0% | 0hPa | 0V | 00:00:00 | 00:00:00 | 00:00:00 | |
| ARGUS2 | 2026-08-31 00:05:11 | 27.73977 | -82.47099 | 167° | 20km/h | 16936m | 6.2m/s | -68.9°C | 0% | 0hPa | 0V | 00:00:00 | 00:00:00 | 00:00:00 | |
| ARGUS2 | 2026-08-31 00:04:50 | 27.74099 | -82.47111 | 165° | 16km/h | 16836m | 5.1m/s | -68.5°C | 0% | 0hPa | 0V | 00:00:00 | 00:00:00 | 00:00:00 | |
| ARGUS2 | 2026-08-31 00:04:30 | 27.74212 | -82.47133 | 181° | 31km/h | 16740m | 4.6m/s | -68.0°C | 0% | 0hPa | 0V | 00:00:00 | 00:00:00 | 00:00:00 | |
| ARGUS2 | 2026-08-31 00:04:10 | 27.74306 | -82.47185 | 142° | 22km/h | 16646m | 5.0m/s | -67.3°C | 0% | 0hPa | 0V | 00:00:00 | 00:00:00 | 00:00:00 | |
| ARGUS2 | 2026-08-31 00:03:49 | 27.74397 | -82.47256 | 138° | 24km/h | 16546m | 3.4m/s | -66.9°C | 0% | 0hPa | 0V | 00:00:00 | 00:00:00 | 00:00:00 | |
| ARGUS2 | 2026-08-31 00:03:31 | 27.74464 | -82.47355 | 84° | 22km/h | 16449m | 6.1m/s | -66.7°C | 0% | 0hPa | 0V | 00:00:00 | 00:00:00 | 00:00:00 | |
| ARGUS2 | 2026-08-31 00:03:10 | 27.74470 | -82.47428 | 139° | 11km/h | 16355m | 6.0m/s | -66.4°C | 0% | 0hPa | 0V | 00:00:00 | 00:00:00 | 00:00:00 | |
| ARGUS2 | 2026-08-31 00:02:37 | 27.74432 | -82.47523 | 357° | 13km/h | 16081m | 4.9m/s | -65.4°C | 0% | 0hPa | 0V | 00:00:00 | 00:00:00 | 00:00:00 | |
| ARGUS2 | 2026-08-31 00:02:10 | 27.74371 | -82.47523 | 22° | 22km/h | 15988m | 3.4m/s | -65.0°C | 0% | 0hPa | 0V | 00:00:00 | 00:00:00 | 00:00:00 | |
| ARGUS2 | 2026-08-31 00:01:36 | 27.74306 | -82.47543 | 12° | 20km/h | 15892m | 3.5m/s | -64.7°C | 0% | 0hPa | 0V | 00:00:00 | 00:00:00 | 00:00:00 | |
| ARGUS2 | 2026-08-31 00:01:11 | 27.74245 | -82.47583 | 29° | 29km/h | 15801m | 3.8m/s | -64.4°C | 0% | 0hPa | 0V | 00:00:00 | 00:00:00 | 00:00:00 | |
| ARGUS2 | 2026-08-31 00:00:45 | 27.74172 | -82.47616 | 95° | 13km/h | 15703m | 5.7m/s | -63.8°C | 0% | 0hPa | 0V | 00:00:00 | 00:00:00 | 00:00:00 | |
| ARGUS2 | 2026-08-31 00:00:27 | 27.74112 | -82.47620 | 312° | 24km/h | 15602m | 5.4m/s | -65.1°C | 0% | 0hPa | 0V | 00:00:00 | 00:00:00 | 00:00:00 | |
| ARGUS2 | 2026-08-30 23:59:42 | 27.74014 | -82.47483 | 325° | 20km/h | 15413m | 4.5m/s | -67.5°C | 0% | 0hPa | 0V | 00:00:00 | 00:00:00 | 00:00:00 | |
| ARGUS2 | 2026-08-30 23:59:21 | 27.73948 | -82.47400 | 316° | 18km/h | 15317m | 4.1m/s | -67.9°C | 0% | 0hPa | 0V | 00:00:00 | 00:00:00 | 00:00:00 | |
| ARGUS2 | 2026-08-30 23:59:01 | 27.73858 | -82.47296 | 294° | 38km/h | 15210m | 3.8m/s | -68.6°C | 0% | 0hPa | 0V | 00:00:00 | 00:00:00 | 00:00:00 | |
| ARGUS2 | 2026-08-30 23:58:41 | 27.73755 | -82.47138 | 306° | 29km/h | 15115m | 5.6m/s | -68.4°C | 0% | 0hPa | 0V | 00:00:00 | 00:00:00 | 00:00:00 | |
| ARGUS2 | 2026-08-30 23:58:20 | 27.73684 | -82.46999 | 288° | 26km/h | 15025m | 3.5m/s | -68.3°C | 0% | 0hPa | 0V | 00:00:00 | 00:00:00 | 00:00:00 | |
| ARGUS2 | 2026-08-30 23:58:00 | 27.73632 | -82.46873 | 271° | 24km/h | 14932m | 3.6m/s | -68.8°C | 0% | 0hPa | 0V | 00:00:00 | 00:00:00 | 00:00:00 | |
| ARGUS2 | 2026-08-30 23:57:38 | 27.73605 | -82.46770 | 286° | 20km/h | 14838m | 4.0m/s | -68.8°C | 0% | 0hPa | 0V | 00:00:00 | 00:00:00 | 00:00:00 | |
| ARGUS2 | 2026-08-30 23:57:18 | 27.73604 | -82.46686 | 279° | 9km/h | 14749m | 4.1m/s | -68.3°C | 0% | 0hPa | 0V | 00:00:00 | 00:00:00 | 00:00:00 | |
| ARGUS2 | 2026-08-30 23:56:57 | 27.73592 | -82.46582 | 27° | 9km/h | 14659m | 6.4m/s | -67.9°C | 0% | 0hPa | 0V | 00:00:00 | 00:00:00 | 00:00:00 | |
| ARGUS2 | 2026-08-30 23:56:37 | 27.73592 | -82.46511 | 0° | 0km/h | 14544m | 5.2m/s | -67.4°C | 0% | 0hPa | 0V | 00:00:00 | 00:00:00 | 00:00:00 | |
| ARGUS2 | 2026-08-30 23:56:17 | 27.73610 | -82.46449 | 266° | 29km/h | 14455m | 3.1m/s | -66.9°C | 0% | 0hPa | 0V | 00:00:00 | 00:00:00 | 00:00:00 | |
| ARGUS2 | 2026-08-30 23:55:56 | 27.73620 | -82.46367 | 267° | 27km/h | 14370m | 4.5m/s | -66.2°C | 0% | 0hPa | 0V | 00:00:00 | 00:00:00 | 00:00:00 | |
| ARGUS2 | 2026-08-30 23:55:36 | 27.73625 | -82.46281 | 290° | 16km/h | 14282m | 4.1m/s | -66.1°C | 0% | 0hPa | 0V | 00:00:00 | 00:00:00 | 00:00:00 | |
| ARGUS2 | 2026-08-30 23:55:15 | 27.73597 | -82.46233 | 291° | 11km/h | 14192m | 5.2m/s | -65.7°C | 0% | 0hPa | 0V | 00:00:00 | 00:00:00 | 00:00:00 | |
| ARGUS2 | 2026-08-30 23:54:54 | 27.73565 | -82.46221 | 338° | 13km/h | 14102m | 4.1m/s | -65.1°C | 0% | 0hPa | 0V | 00:00:00 | 00:00:00 | 00:00:00 | |
| ARGUS2 | 2026-08-30 23:54:34 | 27.73511 | -82.46224 | 14° | 16km/h | 14013m | 3.1m/s | -64.7°C | 0% | 0hPa | 0V | 00:00:00 | 00:00:00 | 00:00:00 | |
| ARGUS2 | 2026-08-30 23:54:14 | 27.73427 | -82.46231 | 34° | 16km/h | 13919m | 5.0m/s | -63.9°C | 0% | 0hPa | 0V | 00:00:00 | 00:00:00 | 00:00:00 | |
| ARGUS2 | 2026-08-30 23:53:53 | 27.73336 | -82.46250 | 358° | 27km/h | 13827m | 4.6m/s | -63.3°C | 0% | 0hPa | 0V | 00:00:00 | 00:00:00 | 00:00:00 | |
| ARGUS2 | 2026-08-30 23:53:33 | 27.73255 | -82.46256 | 327° | 18km/h | 13732m | 6.8m/s | -62.5°C | 0% | 0hPa | 0V | 00:00:00 | 00:00:00 | 00:00:00 | |
| ARGUS2 | 2026-08-30 23:53:12 | 27.73180 | -82.46252 | 353° | 42km/h | 13632m | 4.4m/s | -61.6°C | 0% | 0hPa | 0V | 00:00:00 | 00:00:00 | 00:00:00 | |
| ARGUS2 | 2026-08-30 23:52:52 | 27.73121 | -82.46237 | 258° | 7km/h | 13519m | 5.3m/s | -60.7°C | 0% | 0hPa | 0V | 00:00:00 | 00:00:00 | 00:00:00 | |
| ARGUS2 | 2026-08-30 23:52:30 | 27.73110 | -82.46243 | 278° | 11km/h | 13419m | 5.0m/s | -60.0°C | 0% | 0hPa | 0V | 00:00:00 | 00:00:00 | 00:00:00 | |
| ARGUS2 | 2026-08-30 23:52:10 | 27.73099 | -82.46268 | 80° | 18km/h | 13326m | 4.6m/s | -59.3°C | 0% | 0hPa | 0V | 00:00:00 | 00:00:00 | 00:00:00 | |
| ARGUS2 | 2026-08-30 23:51:50 | 27.73127 | -82.46301 | 83° | 5km/h | 13227m | 5.3m/s | -58.5°C | 0% | 0hPa | 0V | 00:00:00 | 00:00:00 | 00:00:00 | |
| ARGUS2 | 2026-08-30 23:51:29 | 27.73146 | -82.46320 | 116° | 5km/h | 13139m | 4.3m/s | -57.8°C | 0% | 0hPa | 0V | 00:00:00 | 00:00:00 | 00:00:00 | |
| ARGUS2 | 2026-08-30 23:51:09 | 27.73166 | -82.46345 | 187° | 9km/h | 13045m | 4.0m/s | -57.1°C | 0% | 0hPa | 0V | 00:00:00 | 00:00:00 | 00:00:00 | |
| ARGUS2 | 2026-08-30 23:50:48 | 27.73182 | -82.46361 | 149° | 7km/h | 12962m | 4.6m/s | -56.4°C | 0% | 0hPa | 0V | 00:00:00 | 00:00:00 | 00:00:00 | |
| ARGUS2 | 2026-08-30 23:50:28 | 27.73196 | -82.46380 | 167° | 11km/h | 12871m | 2.5m/s | -55.7°C | 0% | 0hPa | 0V | 00:00:00 | 00:00:00 | 00:00:00 | |
| ARGUS2 | 2026-08-30 23:50:07 | 27.73193 | -82.46412 | 97° | 9km/h | 12784m | 4.9m/s | -54.9°C | 0% | 0hPa | 0V | 00:00:00 | 00:00:00 | 00:00:00 | |
| ARGUS2 | 2026-08-30 23:49:26 | 27.73171 | -82.46468 | 354° | 5km/h | 12600m | 4.6m/s | -53.4°C | 0% | 0hPa | 0V | 00:00:00 | 00:00:00 | 00:00:00 | |
| ARGUS2 | 2026-08-30 23:49:06 | 27.73138 | -82.46486 | 134° | 9km/h | 12509m | 3.1m/s | -52.8°C | 0% | 0hPa | 0V | 00:00:00 | 00:00:00 | 00:00:00 | |
| ARGUS2 | 2026-08-30 23:48:46 | 27.73101 | -82.46496 | 54° | 9km/h | 12420m | 3.3m/s | -52.0°C | 0% | 0hPa | 0V | 00:00:00 | 00:00:00 | 00:00:00 | |
| ARGUS2 | 2026-08-30 23:48:25 | 27.73071 | -82.46498 | 19° | 9km/h | 12330m | 3.3m/s | -51.2°C | 0% | 0hPa | 0V | 00:00:00 | 00:00:00 | 00:00:00 | |
| ARGUS2 | 2026-08-30 23:48:04 | 27.73049 | -82.46499 | 337° | 4km/h | 12241m | 4.0m/s | -50.5°C | 0% | 0hPa | 0V | 00:00:00 | 00:00:00 | 00:00:00 | |
| ARGUS2 | 2026-08-30 23:47:44 | 27.73027 | -82.46504 | 67° | 11km/h | 12151m | 3.8m/s | -49.9°C | 0% | 0hPa | 0V | 00:00:00 | 00:00:00 | 00:00:00 | |
| ARGUS2 | 2026-08-30 23:47:23 | 27.73016 | -82.46538 | 51° | 9km/h | 12063m | 3.3m/s | -49.2°C | 0% | 0hPa | 0V | 00:00:00 | 00:00:00 | 00:00:00 | |
| ARGUS2 | 2026-08-30 23:47:02 | 27.73018 | -82.46551 | 83° | 7km/h | 11975m | 4.2m/s | -48.5°C | 0% | 0hPa | 0V | 00:00:00 | 00:00:00 | 00:00:00 | |
| ARGUS2 | 2026-08-30 23:46:41 | 27.73012 | -82.46561 | 254° | 4km/h | 11884m | 5.1m/s | -47.7°C | 0% | 0hPa | 0V | 00:00:00 | 00:00:00 | 00:00:00 | |
| ARGUS2 | 2026-08-30 23:46:21 | 27.73014 | -82.46586 | 127° | 5km/h | 11798m | 4.8m/s | -46.9°C | 0% | 0hPa | 0V | 00:00:00 | 00:00:00 | 00:00:00 | |
| ARGUS2 | 2026-08-30 23:46:01 | 27.73020 | -82.46612 | 84° | 16km/h | 11702m | 5.0m/s | -46.1°C | 0% | 0hPa | 0V | 00:00:00 | 00:00:00 | 00:00:00 | |
| ARGUS2 | 2026-08-30 23:45:40 | 27.73023 | -82.46622 | 172° | 5km/h | 11617m | 3.0m/s | -45.4°C | 0% | 0hPa | 0V | 00:00:00 | 00:00:00 | 00:00:00 | |
| ARGUS2 | 2026-08-30 23:45:20 | 27.73031 | -82.46644 | 273° | 5km/h | 11524m | 4.8m/s | -44.6°C | 0% | 0hPa | 0V | 00:00:00 | 00:00:00 | 00:00:00 | |
| ARGUS2 | 2026-08-30 23:44:59 | 27.73038 | -82.46647 | 331° | 4km/h | 11438m | 5.2m/s | -43.8°C | 0% | 0hPa | 0V | 00:00:00 | 00:00:00 | 00:00:00 | |
| ARGUS2 | 2026-08-30 23:44:39 | 27.73025 | -82.46661 | 0° | 0km/h | 11340m | 3.9m/s | -43.0°C | 0% | 0hPa | 0V | 00:00:00 | 00:00:00 | 00:00:00 | |
| ARGUS2 | 2026-08-30 23:44:18 | 27.73020 | -82.46665 | 335° | 7km/h | 11251m | 4.7m/s | -42.3°C | 0% | 0hPa | 0V | 00:00:00 | 00:00:00 | 00:00:00 | |
| ARGUS2 | 2026-08-30 23:43:58 | 27.72993 | -82.46655 | 197° | 5km/h | 11150m | 5.8m/s | -41.3°C | 0% | 0hPa | 0V | 00:00:00 | 00:00:00 | 00:00:00 | |
| ARGUS2 | 2026-08-30 23:43:37 | 27.72990 | -82.46645 | 301° | 7km/h | 11054m | 5.8m/s | -40.5°C | 0% | 0hPa | 0V | 00:00:00 | 00:00:00 | 00:00:00 | |
| ARGUS2 | 2026-08-30 23:43:17 | 27.72973 | -82.46638 | 278° | 4km/h | 10952m | 4.9m/s | -39.7°C | 0% | 0hPa | 0V | 00:00:00 | 00:00:00 | 00:00:00 | |
| ARGUS2 | 2026-08-30 23:42:56 | 27.72946 | -82.46631 | 84° | 7km/h | 10852m | 3.6m/s | -38.8°C | 0% | 0hPa | 0V | 00:00:00 | 00:00:00 | 00:00:00 | |
| ARGUS2 | 2026-08-30 23:42:36 | 27.72929 | -82.46623 | 10° | 16km/h | 10746m | 4.5m/s | -37.9°C | 0% | 0hPa | 0V | 00:00:00 | 00:00:00 | 00:00:00 | |
| ARGUS2 | 2026-08-30 23:42:15 | 27.72890 | -82.46607 | 283° | 15km/h | 10646m | 5.6m/s | -37.1°C | 0% | 0hPa | 0V | 00:00:00 | 00:00:00 | 00:00:00 | |
| ARGUS2 | 2026-08-30 23:41:54 | 27.72868 | -82.46592 | 346° | 15km/h | 10544m | 5.0m/s | -36.4°C | 0% | 0hPa | 0V | 00:00:00 | 00:00:00 | 00:00:00 | |
| ARGUS2 | 2026-08-30 23:41:34 | 27.72826 | -82.46541 | 301° | 22km/h | 10439m | 3.8m/s | -35.6°C | 0% | 0hPa | 0V | 00:00:00 | 00:00:00 | 00:00:00 | |
| ARGUS2 | 2026-08-30 23:41:13 | 27.72785 | -82.46491 | 290° | 11km/h | 10340m | 6.1m/s | -34.8°C | 0% | 0hPa | 0V | 00:00:00 | 00:00:00 | 00:00:00 | |
| ARGUS2 | 2026-08-30 23:40:53 | 27.72763 | -82.46437 | 317° | 9km/h | 10232m | 4.5m/s | -33.9°C | 0% | 0hPa | 0V | 00:00:00 | 00:00:00 | 00:00:00 | |
| ARGUS2 | 2026-08-30 23:40:32 | 27.72751 | -82.46364 | 285° | 13km/h | 10129m | 4.8m/s | -33.2°C | 0% | 0hPa | 0V | 00:00:00 | 00:00:00 | 00:00:00 | |
| ARGUS2 | 2026-08-30 23:40:11 | 27.72740 | -82.46309 | 247° | 5km/h | 10021m | 6.6m/s | -32.4°C | 0% | 0hPa | 0V | 00:00:00 | 00:00:00 | 00:00:00 | |
| ARGUS2 | 2026-08-30 23:39:49 | 27.72724 | -82.46261 | 0° | 0km/h | 9904m | 4.2m/s | -31.5°C | 0% | 0hPa | 0V | 00:00:00 | 00:00:00 | 00:00:00 | |
| ARGUS2 | 2026-08-30 23:39:27 | 27.72689 | -82.46205 | 344° | 11km/h | 9787m | 5.5m/s | -30.6°C | 0% | 0hPa | 0V | 00:00:00 | 00:00:00 | 00:00:00 | |
| ARGUS2 | 2026-08-30 23:39:06 | 27.72653 | -82.46136 | 286° | 26km/h | 9686m | 5.2m/s | -29.8°C | 0% | 0hPa | 0V | 00:00:00 | 00:00:00 | 00:00:00 | |
| ARGUS2 | 2026-08-30 23:38:46 | 27.72625 | -82.46047 | 287° | 31km/h | 9582m | 5.9m/s | -29.2°C | 0% | 0hPa | 0V | 00:00:00 | 00:00:00 | 00:00:00 | |
| ARGUS2 | 2026-08-30 23:38:26 | 27.72583 | -82.45928 | 274° | 15km/h | 9478m | 4.6m/s | -28.5°C | 0% | 0hPa | 0V | 00:00:00 | 00:00:00 | 00:00:00 | |
| ARGUS2 | 2026-08-30 23:38:04 | 27.72547 | -82.45787 | 277° | 29km/h | 9374m | 4.3m/s | -27.7°C | 0% | 0hPa | 0V | 00:00:00 | 00:00:00 | 00:00:00 | |
| ARGUS2 | 2026-08-30 23:37:44 | 27.72515 | -82.45631 | 280° | 13km/h | 9268m | 4.9m/s | -27.0°C | 0% | 0hPa | 0V | 00:00:00 | 00:00:00 | 00:00:00 | |
| ARGUS2 | 2026-08-30 23:37:24 | 27.72497 | -82.45501 | 265° | 27km/h | 9163m | 6.0m/s | -26.2°C | 0% | 0hPa | 0V | 00:00:00 | 00:00:00 | 00:00:00 | |
| ARGUS2 | 2026-08-30 23:37:03 | 27.72498 | -82.45370 | 237° | 20km/h | 9055m | 6.6m/s | -25.4°C | 0% | 0hPa | 0V | 00:00:00 | 00:00:00 | 00:00:00 | |
| ARGUS2 | 2026-08-30 23:36:43 | 27.72492 | -82.45250 | 288° | 16km/h | 8944m | 6.4m/s | -24.7°C | 0% | 0hPa | 0V | 00:00:00 | 00:00:00 | 00:00:00 | |
| ARGUS2 | 2026-08-30 23:36:22 | 27.72466 | -82.45141 | 306° | 20km/h | 8836m | 4.2m/s | -23.9°C | 0% | 0hPa | 0V | 00:00:00 | 00:00:00 | 00:00:00 | |
| ARGUS2 | 2026-08-30 23:35:41 | 27.72467 | -82.44942 | 258° | 29km/h | 8633m | 3.3m/s | -22.5°C | 0% | 0hPa | 0V | 00:00:00 | 00:00:00 | 00:00:00 | |
| ARGUS2 | 2026-08-30 23:35:19 | 27.72486 | -82.44846 | 258° | 7km/h | 8518m | 5.6m/s | -21.7°C | 0% | 0hPa | 0V | 00:00:00 | 00:00:00 | 00:00:00 | |
| ARGUS2 | 2026-08-30 23:34:58 | 27.72503 | -82.44759 | 274° | 16km/h | 8415m | 4.2m/s | -21.1°C | 0% | 0hPa | 0V | 00:00:00 | 00:00:00 | 00:00:00 | |
| ARGUS2 | 2026-08-30 23:34:38 | 27.72524 | -82.44653 | 260° | 5km/h | 8317m | 6.1m/s | -20.6°C | 0% | 0hPa | 0V | 00:00:00 | 00:00:00 | 00:00:00 | |
| ARGUS2 | 2026-08-30 23:34:17 | 27.72526 | -82.44570 | 272° | 24km/h | 8222m | 4.9m/s | -20.0°C | 0% | 0hPa | 0V | 00:00:00 | 00:00:00 | 00:00:00 | |
| ARGUS2 | 2026-08-30 23:33:57 | 27.72546 | -82.44488 | 310° | 13km/h | 8128m | 4.4m/s | -19.3°C | 0% | 0hPa | 0V | 00:00:00 | 00:00:00 | 00:00:00 | |
| ARGUS2 | 2026-08-30 23:33:36 | 27.72531 | -82.44389 | 297° | 11km/h | 8028m | 4.1m/s | -18.5°C | 0% | 0hPa | 0V | 00:00:00 | 00:00:00 | 00:00:00 | |
| ARGUS2 | 2026-08-30 23:33:16 | 27.72499 | -82.44263 | 316° | 13km/h | 7925m | 4.5m/s | -17.8°C | 0% | 0hPa | 0V | 00:00:00 | 00:00:00 | 00:00:00 | |
| ARGUS2 | 2026-08-30 23:32:55 | 27.72486 | -82.44118 | 248° | 22km/h | 7822m | 6.4m/s | -17.2°C | 0% | 0hPa | 0V | 00:00:00 | 00:00:00 | 00:00:00 | |
| ARGUS2 | 2026-08-30 23:32:34 | 27.72455 | -82.43994 | 288° | 9km/h | 7721m | 7.5m/s | -16.5°C | 0% | 0hPa | 0V | 00:00:00 | 00:00:00 | 00:00:00 | |
| ARGUS2 | 2026-08-30 23:32:14 | 27.72433 | -82.43861 | 274° | 37km/h | 7610m | 5.1m/s | -15.9°C | 0% | 0hPa | 0V | 00:00:00 | 00:00:00 | 00:00:00 | |
| ARGUS2 | 2026-08-30 23:31:52 | 27.72404 | -82.43689 | 312° | 20km/h | 7496m | 6.3m/s | -15.2°C | 0% | 0hPa | 0V | 00:00:00 | 00:00:00 | 00:00:00 | |
| ARGUS2 | 2026-08-30 23:31:31 | 27.72377 | -82.43584 | 254° | 18km/h | 7389m | 7.2m/s | -14.5°C | 0% | 0hPa | 0V | 00:00:00 | 00:00:00 | 00:00:00 | |
| ARGUS2 | 2026-08-30 23:31:11 | 27.72353 | -82.43431 | 265° | 18km/h | 7270m | 7.8m/s | -13.8°C | 0% | 0hPa | 0V | 00:00:00 | 00:00:00 | 00:00:00 | |
| ARGUS2 | 2026-08-30 23:30:49 | 27.72299 | -82.43337 | 268° | 22km/h | 7148m | 6.4m/s | -13.1°C | 0% | 0hPa | 0V | 00:00:00 | 00:00:00 | 00:00:00 | |
| ARGUS2 | 2026-08-30 23:30:29 | 27.72292 | -82.43222 | 238° | 29km/h | 7035m | 5.9m/s | -12.4°C | 0% | 0hPa | 0V | 00:00:00 | 00:00:00 | 00:00:00 | |
| ARGUS2 | 2026-08-30 23:30:08 | 27.72298 | -82.43134 | 260° | 22km/h | 6903m | 6.3m/s | -11.6°C | 0% | 0hPa | 0V | 00:00:00 | 00:00:00 | 00:00:00 | |
| ARGUS2 | 2026-08-30 23:29:48 | 27.72351 | -82.43049 | 267° | 15km/h | 6789m | 8.3m/s | -11.1°C | 0% | 0hPa | 0V | 00:00:00 | 00:00:00 | 00:00:00 | |
| ARGUS2 | 2026-08-30 23:29:28 | 27.72364 | -82.42952 | 203° | 18km/h | 6664m | 5.7m/s | -10.4°C | 0% | 0hPa | 0V | 00:00:00 | 00:00:00 | 00:00:00 | |
| ARGUS2 | 2026-08-30 23:29:07 | 27.72363 | -82.42885 | 244° | 7km/h | 6552m | 4.4m/s | -10.0°C | 0% | 0hPa | 0V | 00:00:00 | 00:00:00 | 00:00:00 | |
| ARGUS2 | 2026-08-30 23:28:46 | 27.72360 | -82.42789 | 217° | 20km/h | 6434m | 6.4m/s | -9.0°C | 0% | 0hPa | 0V | 00:00:00 | 00:00:00 | 00:00:00 | |
| ARGUS2 | 2026-08-30 23:28:26 | 27.72363 | -82.42751 | 259° | 27km/h | 6317m | 5.8m/s | -8.3°C | 0% | 0hPa | 0V | 00:00:00 | 00:00:00 | 00:00:00 | |
| ARGUS2 | 2026-08-30 23:28:06 | 27.72376 | -82.42706 | 173° | 15km/h | 6201m | 4.9m/s | -7.7°C | 0% | 0hPa | 0V | 00:00:00 | 00:00:00 | 00:00:00 | |
| ARGUS2 | 2026-08-30 23:27:45 | 27.72373 | -82.42698 | 232° | 20km/h | 6090m | 5.2m/s | -7.1°C | 0% | 0hPa | 0V | 00:00:00 | 00:00:00 | 00:00:00 | |
| ARGUS2 | 2026-08-30 23:27:25 | 27.72386 | -82.42646 | 108° | 13km/h | 5968m | 6.0m/s | -6.4°C | 0% | 0hPa | 0V | 00:00:00 | 00:00:00 | 00:00:00 | |
| ARGUS2 | 2026-08-30 23:27:04 | 27.72360 | -82.42603 | 346° | 20km/h | 5853m | 6.0m/s | -5.9°C | 0% | 0hPa | 0V | 00:00:00 | 00:00:00 | 00:00:00 | |
| ARGUS2 | 2026-08-30 23:26:44 | 27.72336 | -82.42625 | 331° | 15km/h | 5736m | 5.0m/s | -5.5°C | 0% | 0hPa | 0V | 00:00:00 | 00:00:00 | 00:00:00 | |
| ARGUS2 | 2026-08-30 23:26:22 | 27.72349 | -82.42636 | 95° | 13km/h | 5616m | 4.5m/s | -5.1°C | 0% | 0hPa | 0V | 00:00:00 | 00:00:00 | 00:00:00 | |
| ARGUS2 | 2026-08-30 23:26:01 | 27.72337 | -82.42669 | 62° | 24km/h | 5492m | 5.2m/s | -4.5°C | 0% | 0hPa | 0V | 00:00:00 | 00:00:00 | 00:00:00 | |
| ARGUS2 | 2026-08-30 23:25:40 | 27.72305 | -82.42715 | 329° | 24km/h | 5381m | 6.2m/s | -4.0°C | 0% | 0hPa | 0V | 00:00:00 | 00:00:00 | 00:00:00 | |
| ARGUS2 | 2026-08-30 23:25:20 | 27.72279 | -82.42730 | 37° | 22km/h | 5261m | 6.7m/s | -3.4°C | 0% | 0hPa | 0V | 00:00:00 | 00:00:00 | 00:00:00 | |
| ARGUS2 | 2026-08-30 23:24:58 | 27.72215 | -82.42746 | 265° | 16km/h | 5151m | 5.9m/s | -2.8°C | 0% | 0hPa | 0V | 00:00:00 | 00:00:00 | 00:00:00 | |
| ARGUS2 | 2026-08-30 23:24:38 | 27.72159 | -82.42706 | 20° | 18km/h | 5046m | 5.4m/s | -2.0°C | 0% | 0hPa | 0V | 00:00:00 | 00:00:00 | 00:00:00 | |
| ARGUS2 | 2026-08-30 23:24:17 | 27.72108 | -82.42726 | 207° | 11km/h | 4933m | 4.6m/s | -1.2°C | 0% | 0hPa | 0V | 00:00:00 | 00:00:00 | 00:00:00 | |
| ARGUS2 | 2026-08-30 23:23:56 | 27.72049 | -82.42694 | 55° | 11km/h | 4827m | 4.3m/s | -0.7°C | 0% | 0hPa | 0V | 00:00:00 | 00:00:00 | 00:00:00 | |
| ARGUS2 | 2026-08-30 23:21:44 | 27.72020 | -82.42808 | 324° | 7km/h | 4146m | 7.2m/s | 2.4°C | 0% | 0hPa | 0V | 00:00:00 | 00:00:00 | 00:00:00 | |
| ARGUS2 | 2026-08-30 23:21:08 | 27.72003 | -82.42848 | 241° | 9km/h | 3953m | 6.4m/s | 4.0°C | 0% | 0hPa | 0V | 00:00:00 | 00:00:00 | 00:00:00 | |
| ARGUS2 | 2026-08-30 23:20:45 | 27.72020 | -82.42815 | 15° | 13km/h | 3832m | 6.2m/s | 4.8°C | 0% | 0hPa | 0V | 00:00:00 | 00:00:00 | 00:00:00 | |
| ARGUS2 | 2026-08-30 23:20:25 | 27.71992 | -82.42840 | 129° | 9km/h | 3729m | 3.9m/s | 5.6°C | 0% | 0hPa | 0V | 00:00:00 | 00:00:00 | 00:00:00 | |
| ARGUS2 | 2026-08-30 23:20:04 | 27.71967 | -82.42865 | 275° | 11km/h | 3615m | 5.9m/s | 6.6°C | 0% | 0hPa | 0V | 00:00:00 | 00:00:00 | 00:00:00 | |
| ARGUS2 | 2026-08-30 23:19:22 | 27.71899 | -82.42837 | 185° | 5km/h | 3404m | 3.3m/s | 8.3°C | 0% | 0hPa | 0V | 00:00:00 | 00:00:00 | 00:00:00 | |
| ARGUS2 | 2026-08-30 23:18:41 | 27.71855 | -82.42798 | 235° | 16km/h | 3201m | 6.5m/s | 9.1°C | 0% | 0hPa | 0V | 00:00:00 | 00:00:00 | 00:00:00 | |
| ARGUS2 | 2026-08-30 23:18:20 | 27.71845 | -82.42726 | 234° | 20km/h | 3085m | 6.9m/s | 9.9°C | 0% | 0hPa | 0V | 00:00:00 | 00:00:00 | 00:00:00 | |
| ARGUS2 | 2026-08-30 23:17:43 | 27.71856 | -82.42482 | 312° | 26km/h | 2896m | 3.7m/s | 10.8°C | 0% | 0hPa | 0V | 00:00:00 | 00:00:00 | 00:00:00 | |
| ARGUS2 | 2026-08-30 23:17:06 | 27.71860 | -82.42210 | 270° | 40km/h | 2692m | 4.8m/s | 11.5°C | 0% | 0hPa | 0V | 00:00:00 | 00:00:00 | 00:00:00 | |
| ARGUS2 | 2026-08-30 23:16:41 | 27.71858 | -82.42028 | 285° | 38km/h | 2572m | 5.6m/s | 12.4°C | 0% | 0hPa | 0V | 00:00:00 | 00:00:00 | 00:00:00 | |
| ARGUS2 | 2026-08-30 23:16:11 | 27.71881 | -82.41833 | 251° | 16km/h | 2399m | 3.8m/s | 13.2°C | 0% | 0hPa | 0V | 00:00:00 | 00:00:00 | 00:00:00 | |
| ARGUS2 | 2026-08-30 23:15:24 | 27.71833 | -82.41475 | 264° | 37km/h | 2151m | 3.8m/s | 14.9°C | 0% | 0hPa | 0V | 00:00:00 | 00:00:00 | 00:00:00 | |
| ARGUS2 | 2026-08-30 23:14:59 | 27.71814 | -82.41273 | 261° | 29km/h | 2009m | 3.8m/s | 15.8°C | 0% | 0hPa | 0V | 00:00:00 | 00:00:00 | 00:00:00 | |
| ARGUS2 | 2026-08-30 23:14:39 | 27.71779 | -82.41103 | 273° | 27km/h | 1899m | 6.1m/s | 16.7°C | 0% | 0hPa | 0V | 00:00:00 | 00:00:00 | 00:00:00 | |
| ARGUS2 | 2026-08-30 23:14:19 | 27.71704 | -82.40976 | 307° | 38km/h | 1772m | 3.8m/s | 17.4°C | 0% | 0hPa | 0V | 00:00:00 | 00:00:00 | 00:00:00 | |
| ARGUS2 | 2026-08-30 23:13:57 | 27.71656 | -82.40797 | 290° | 38km/h | 1659m | 5.8m/s | 17.7°C | 0% | 0hPa | 0V | 00:00:00 | 00:00:00 | 00:00:00 |